<?xml version="1.0" encoding="UTF-8" standalone="no" ?>
<gpx xmlns="http://www.topografix.com/GPX/1/1" xmlns:xsi="http://www.w3.org/2001/XMLSchema-instance" xsi:schemaLocation="http://www.topografix.com/GPX/1/1 http://www.topografix.com/GPX/1/1/gpx.xsd" version="1.1" creator="VisuGPX - https://www.visugpx.com">
  <metadata>
    <name>01/08/2013</name>
    <desc><![CDATA[01/08/2013]]></desc>
  </metadata>
  <wpt lat="48.72381" lon="2.09756">
    <ele>159.3</ele>
    <name><![CDATA[Start]]></name>
    <desc><![CDATA[2013-08-01 04:44:22]]></desc>
  </wpt>
  <wpt lat="48.76256" lon="2.0836">
    <ele>159</ele>
    <name><![CDATA[Lap 1]]></name>
    <desc><![CDATA[8.61km, 31:40, 16.3kph]]></desc>
  </wpt>
  <wpt lat="48.72378" lon="2.09904">
    <ele>159.4</ele>
    <name><![CDATA[Lap 2]]></name>
    <desc><![CDATA[19.36km, 67:23, 17.2kph]]></desc>
  </wpt>
  <trk>
    <name><![CDATA[2013-08-01-04-44-22]]></name>
    <desc><![CDATA[99:03 - 28.0km]]></desc>
    <trkseg>
      <trkpt lat="48.72381" lon="2.09756">
        <ele>178.9</ele>
        <time>2013-08-01T04:44:23Z</time>
      </trkpt>
      <trkpt lat="48.72383" lon="2.09742">
        <ele>178.898</ele>
        <time>2013-08-01T04:44:25Z</time>
      </trkpt>
      <trkpt lat="48.72385" lon="2.09727">
        <ele>179.63</ele>
        <time>2013-08-01T04:44:27Z</time>
      </trkpt>
      <trkpt lat="48.7239" lon="2.09697">
        <ele>179.161</ele>
        <time>2013-08-01T04:44:31Z</time>
      </trkpt>
      <trkpt lat="48.72389" lon="2.09626">
        <ele>178.757</ele>
        <time>2013-08-01T04:44:40Z</time>
      </trkpt>
      <trkpt lat="48.7239" lon="2.09563">
        <ele>178.462</ele>
        <time>2013-08-01T04:44:48Z</time>
      </trkpt>
      <trkpt lat="48.7239" lon="2.09495">
        <ele>178.446</ele>
        <time>2013-08-01T04:44:57Z</time>
      </trkpt>
      <trkpt lat="48.72391" lon="2.09479">
        <ele>178.398</ele>
        <time>2013-08-01T04:44:59Z</time>
      </trkpt>
      <trkpt lat="48.72385" lon="2.09451">
        <ele>178.545</ele>
        <time>2013-08-01T04:45:03Z</time>
      </trkpt>
      <trkpt lat="48.72378" lon="2.09441">
        <ele>178.74</ele>
        <time>2013-08-01T04:45:05Z</time>
      </trkpt>
      <trkpt lat="48.72348" lon="2.09409">
        <ele>179.788</ele>
        <time>2013-08-01T04:45:13Z</time>
      </trkpt>
      <trkpt lat="48.72317" lon="2.09379">
        <ele>180.886</ele>
        <time>2013-08-01T04:45:21Z</time>
      </trkpt>
      <trkpt lat="48.72295" lon="2.09356">
        <ele>181.496</ele>
        <time>2013-08-01T04:45:27Z</time>
      </trkpt>
      <trkpt lat="48.72289" lon="2.09335">
        <ele>181.643</ele>
        <time>2013-08-01T04:45:31Z</time>
      </trkpt>
      <trkpt lat="48.72291" lon="2.09329">
        <ele>181.744</ele>
        <time>2013-08-01T04:45:32Z</time>
      </trkpt>
      <trkpt lat="48.7232" lon="2.09268">
        <ele>182.076</ele>
        <time>2013-08-01T04:45:43Z</time>
      </trkpt>
      <trkpt lat="48.72343" lon="2.09221">
        <ele>182.34</ele>
        <time>2013-08-01T04:45:51Z</time>
      </trkpt>
      <trkpt lat="48.72355" lon="2.09196">
        <ele>182.185</ele>
        <time>2013-08-01T04:45:55Z</time>
      </trkpt>
      <trkpt lat="48.7237" lon="2.09181">
        <ele>181.898</ele>
        <time>2013-08-01T04:45:59Z</time>
      </trkpt>
      <trkpt lat="48.72384" lon="2.09175">
        <ele>181.693</ele>
        <time>2013-08-01T04:46:04Z</time>
      </trkpt>
      <trkpt lat="48.72404" lon="2.09168">
        <ele>181.298</ele>
        <time>2013-08-01T04:46:08Z</time>
      </trkpt>
      <trkpt lat="48.72446" lon="2.09146">
        <ele>180.921</ele>
        <time>2013-08-01T04:46:17Z</time>
      </trkpt>
      <trkpt lat="48.72488" lon="2.09124">
        <ele>181.002</ele>
        <time>2013-08-01T04:46:26Z</time>
      </trkpt>
      <trkpt lat="48.72506" lon="2.09117">
        <ele>180.964</ele>
        <time>2013-08-01T04:46:30Z</time>
      </trkpt>
      <trkpt lat="48.72523" lon="2.09109">
        <ele>180.964</ele>
        <time>2013-08-01T04:46:34Z</time>
      </trkpt>
      <trkpt lat="48.72538" lon="2.09119">
        <ele>180.814</ele>
        <time>2013-08-01T04:46:38Z</time>
      </trkpt>
      <trkpt lat="48.72567" lon="2.0918">
        <ele>180.22</ele>
        <time>2013-08-01T04:46:49Z</time>
      </trkpt>
      <trkpt lat="48.72589" lon="2.09226">
        <ele>179.23</ele>
        <time>2013-08-01T04:46:57Z</time>
      </trkpt>
      <trkpt lat="48.72595" lon="2.09238">
        <ele>178.971</ele>
        <time>2013-08-01T04:46:59Z</time>
      </trkpt>
      <trkpt lat="48.72609" lon="2.09257">
        <ele>178.614</ele>
        <time>2013-08-01T04:47:03Z</time>
      </trkpt>
      <trkpt lat="48.7262" lon="2.0927">
        <ele>178.377</ele>
        <time>2013-08-01T04:47:06Z</time>
      </trkpt>
      <trkpt lat="48.72628" lon="2.09279">
        <ele>178.109</ele>
        <time>2013-08-01T04:47:08Z</time>
      </trkpt>
      <trkpt lat="48.72656" lon="2.09309">
        <ele>177.025</ele>
        <time>2013-08-01T04:47:14Z</time>
      </trkpt>
      <trkpt lat="48.72681" lon="2.09334">
        <ele>175.844</ele>
        <time>2013-08-01T04:47:19Z</time>
      </trkpt>
      <trkpt lat="48.72699" lon="2.09343">
        <ele>174.409</ele>
        <time>2013-08-01T04:47:23Z</time>
      </trkpt>
      <trkpt lat="48.72709" lon="2.09349">
        <ele>173.495</ele>
        <time>2013-08-01T04:47:26Z</time>
      </trkpt>
      <trkpt lat="48.72723" lon="2.0934">
        <ele>171.941</ele>
        <time>2013-08-01T04:47:30Z</time>
      </trkpt>
      <trkpt lat="48.72729" lon="2.09326">
        <ele>171.264</ele>
        <time>2013-08-01T04:47:32Z</time>
      </trkpt>
      <trkpt lat="48.72734" lon="2.09291">
        <ele>171.216</ele>
        <time>2013-08-01T04:47:37Z</time>
      </trkpt>
      <trkpt lat="48.72734" lon="2.09285">
        <ele>171.362</ele>
        <time>2013-08-01T04:47:38Z</time>
      </trkpt>
      <trkpt lat="48.72736" lon="2.09271">
        <ele>171.817</ele>
        <time>2013-08-01T04:47:40Z</time>
      </trkpt>
      <trkpt lat="48.72737" lon="2.09265">
        <ele>171.817</ele>
        <time>2013-08-01T04:47:41Z</time>
      </trkpt>
      <trkpt lat="48.72748" lon="2.09247">
        <ele>172.714</ele>
        <time>2013-08-01T04:47:45Z</time>
      </trkpt>
      <trkpt lat="48.72755" lon="2.09243">
        <ele>172.884</ele>
        <time>2013-08-01T04:47:47Z</time>
      </trkpt>
      <trkpt lat="48.72764" lon="2.09239">
        <ele>172.687</ele>
        <time>2013-08-01T04:47:49Z</time>
      </trkpt>
      <trkpt lat="48.72776" lon="2.09222">
        <ele>171.924</ele>
        <time>2013-08-01T04:47:52Z</time>
      </trkpt>
      <trkpt lat="48.72783" lon="2.092">
        <ele>171.423</ele>
        <time>2013-08-01T04:47:55Z</time>
      </trkpt>
      <trkpt lat="48.7279" lon="2.09182">
        <ele>171.458</ele>
        <time>2013-08-01T04:47:58Z</time>
      </trkpt>
      <trkpt lat="48.72785" lon="2.09156">
        <ele>171.804</ele>
        <time>2013-08-01T04:48:02Z</time>
      </trkpt>
      <trkpt lat="48.72768" lon="2.09129">
        <ele>173.09</ele>
        <time>2013-08-01T04:48:09Z</time>
      </trkpt>
      <trkpt lat="48.72763" lon="2.09117">
        <ele>174.157</ele>
        <time>2013-08-01T04:48:12Z</time>
      </trkpt>
      <trkpt lat="48.72758" lon="2.091">
        <ele>175.875</ele>
        <time>2013-08-01T04:48:17Z</time>
      </trkpt>
      <trkpt lat="48.72753" lon="2.09081">
        <ele>177.103</ele>
        <time>2013-08-01T04:48:21Z</time>
      </trkpt>
      <trkpt lat="48.72753" lon="2.09067">
        <ele>177.626</ele>
        <time>2013-08-01T04:48:24Z</time>
      </trkpt>
      <trkpt lat="48.72756" lon="2.09058">
        <ele>177.773</ele>
        <time>2013-08-01T04:48:26Z</time>
      </trkpt>
      <trkpt lat="48.72766" lon="2.09034">
        <ele>177.879</ele>
        <time>2013-08-01T04:48:32Z</time>
      </trkpt>
      <trkpt lat="48.72784" lon="2.09011">
        <ele>177.814</ele>
        <time>2013-08-01T04:48:38Z</time>
      </trkpt>
      <trkpt lat="48.72808" lon="2.0899">
        <ele>176.937</ele>
        <time>2013-08-01T04:48:43Z</time>
      </trkpt>
      <trkpt lat="48.72819" lon="2.08967">
        <ele>176.704</ele>
        <time>2013-08-01T04:48:47Z</time>
      </trkpt>
      <trkpt lat="48.72821" lon="2.08953">
        <ele>177.101</ele>
        <time>2013-08-01T04:48:50Z</time>
      </trkpt>
      <trkpt lat="48.72829" lon="2.08916">
        <ele>178.173</ele>
        <time>2013-08-01T04:48:57Z</time>
      </trkpt>
      <trkpt lat="48.7284" lon="2.08895">
        <ele>178.378</ele>
        <time>2013-08-01T04:49:01Z</time>
      </trkpt>
      <trkpt lat="48.72846" lon="2.08868">
        <ele>177.934</ele>
        <time>2013-08-01T04:49:05Z</time>
      </trkpt>
      <trkpt lat="48.72846" lon="2.08855">
        <ele>177.673</ele>
        <time>2013-08-01T04:49:07Z</time>
      </trkpt>
      <trkpt lat="48.72843" lon="2.08834">
        <ele>177.504</ele>
        <time>2013-08-01T04:49:10Z</time>
      </trkpt>
      <trkpt lat="48.72846" lon="2.08803">
        <ele>177.787</ele>
        <time>2013-08-01T04:49:15Z</time>
      </trkpt>
      <trkpt lat="48.72848" lon="2.08779">
        <ele>178.056</ele>
        <time>2013-08-01T04:49:19Z</time>
      </trkpt>
      <trkpt lat="48.72851" lon="2.08754">
        <ele>178.276</ele>
        <time>2013-08-01T04:49:23Z</time>
      </trkpt>
      <trkpt lat="48.7286" lon="2.08735">
        <ele>178.18</ele>
        <time>2013-08-01T04:49:26Z</time>
      </trkpt>
      <trkpt lat="48.72879" lon="2.087">
        <ele>177.697</ele>
        <time>2013-08-01T04:49:32Z</time>
      </trkpt>
      <trkpt lat="48.72889" lon="2.08681">
        <ele>177.524</ele>
        <time>2013-08-01T04:49:35Z</time>
      </trkpt>
      <trkpt lat="48.72895" lon="2.08654">
        <ele>177.3</ele>
        <time>2013-08-01T04:49:39Z</time>
      </trkpt>
      <trkpt lat="48.72895" lon="2.08638">
        <ele>177.214</ele>
        <time>2013-08-01T04:49:41Z</time>
      </trkpt>
      <trkpt lat="48.72887" lon="2.08609">
        <ele>177.094</ele>
        <time>2013-08-01T04:49:45Z</time>
      </trkpt>
      <trkpt lat="48.72882" lon="2.08596">
        <ele>177.083</ele>
        <time>2013-08-01T04:49:47Z</time>
      </trkpt>
      <trkpt lat="48.72881" lon="2.08561">
        <ele>176.971</ele>
        <time>2013-08-01T04:49:52Z</time>
      </trkpt>
      <trkpt lat="48.7289" lon="2.0852">
        <ele>176.88</ele>
        <time>2013-08-01T04:49:58Z</time>
      </trkpt>
      <trkpt lat="48.72893" lon="2.08503">
        <ele>176.959</ele>
        <time>2013-08-01T04:50:01Z</time>
      </trkpt>
      <trkpt lat="48.72896" lon="2.08492">
        <ele>176.925</ele>
        <time>2013-08-01T04:50:03Z</time>
      </trkpt>
      <trkpt lat="48.72904" lon="2.08469">
        <ele>176.854</ele>
        <time>2013-08-01T04:50:07Z</time>
      </trkpt>
      <trkpt lat="48.72919" lon="2.08446">
        <ele>177.02</ele>
        <time>2013-08-01T04:50:12Z</time>
      </trkpt>
      <trkpt lat="48.72936" lon="2.08427">
        <ele>177.289</ele>
        <time>2013-08-01T04:50:17Z</time>
      </trkpt>
      <trkpt lat="48.72961" lon="2.084">
        <ele>177.323</ele>
        <time>2013-08-01T04:50:24Z</time>
      </trkpt>
      <trkpt lat="48.72964" lon="2.08396">
        <ele>177.369</ele>
        <time>2013-08-01T04:50:25Z</time>
      </trkpt>
      <trkpt lat="48.72983" lon="2.08376">
        <ele>177.804</ele>
        <time>2013-08-01T04:50:30Z</time>
      </trkpt>
      <trkpt lat="48.72989" lon="2.08368">
        <ele>177.975</ele>
        <time>2013-08-01T04:50:32Z</time>
      </trkpt>
      <trkpt lat="48.73005" lon="2.08348">
        <ele>178.24</ele>
        <time>2013-08-01T04:50:37Z</time>
      </trkpt>
      <trkpt lat="48.73015" lon="2.08334">
        <ele>178.27</ele>
        <time>2013-08-01T04:50:40Z</time>
      </trkpt>
      <trkpt lat="48.73032" lon="2.08311">
        <ele>178.355</ele>
        <time>2013-08-01T04:50:45Z</time>
      </trkpt>
      <trkpt lat="48.73045" lon="2.08293">
        <ele>178.393</ele>
        <time>2013-08-01T04:50:49Z</time>
      </trkpt>
      <trkpt lat="48.7306" lon="2.08272">
        <ele>178.674</ele>
        <time>2013-08-01T04:50:54Z</time>
      </trkpt>
      <trkpt lat="48.73063" lon="2.08268">
        <ele>178.771</ele>
        <time>2013-08-01T04:50:55Z</time>
      </trkpt>
      <trkpt lat="48.73079" lon="2.0825">
        <ele>179.174</ele>
        <time>2013-08-01T04:51:00Z</time>
      </trkpt>
      <trkpt lat="48.73082" lon="2.08246">
        <ele>179.204</ele>
        <time>2013-08-01T04:51:01Z</time>
      </trkpt>
      <trkpt lat="48.73094" lon="2.08232">
        <ele>179.253</ele>
        <time>2013-08-01T04:51:05Z</time>
      </trkpt>
      <trkpt lat="48.73113" lon="2.08216">
        <ele>179.62</ele>
        <time>2013-08-01T04:51:11Z</time>
      </trkpt>
      <trkpt lat="48.73118" lon="2.08206">
        <ele>179.679</ele>
        <time>2013-08-01T04:51:13Z</time>
      </trkpt>
      <trkpt lat="48.73125" lon="2.08191">
        <ele>179.745</ele>
        <time>2013-08-01T04:51:16Z</time>
      </trkpt>
      <trkpt lat="48.73136" lon="2.08172">
        <ele>179.679</ele>
        <time>2013-08-01T04:51:20Z</time>
      </trkpt>
      <trkpt lat="48.73151" lon="2.08164">
        <ele>179.405</ele>
        <time>2013-08-01T04:51:24Z</time>
      </trkpt>
      <trkpt lat="48.73163" lon="2.08174">
        <ele>179.06</ele>
        <time>2013-08-01T04:51:27Z</time>
      </trkpt>
      <trkpt lat="48.7319" lon="2.08197">
        <ele>177.864</ele>
        <time>2013-08-01T04:51:33Z</time>
      </trkpt>
      <trkpt lat="48.73219" lon="2.08221">
        <ele>175.156</ele>
        <time>2013-08-01T04:51:39Z</time>
      </trkpt>
      <trkpt lat="48.73225" lon="2.08226">
        <ele>173.934</ele>
        <time>2013-08-01T04:51:41Z</time>
      </trkpt>
      <trkpt lat="48.73235" lon="2.08232">
        <ele>172.105</ele>
        <time>2013-08-01T04:51:44Z</time>
      </trkpt>
      <trkpt lat="48.73248" lon="2.08259">
        <ele>168.488</ele>
        <time>2013-08-01T04:51:50Z</time>
      </trkpt>
      <trkpt lat="48.73251" lon="2.08264">
        <ele>167.742</ele>
        <time>2013-08-01T04:51:51Z</time>
      </trkpt>
      <trkpt lat="48.73257" lon="2.08275">
        <ele>166.842</ele>
        <time>2013-08-01T04:51:53Z</time>
      </trkpt>
      <trkpt lat="48.73272" lon="2.08298">
        <ele>162.733</ele>
        <time>2013-08-01T04:51:57Z</time>
      </trkpt>
      <trkpt lat="48.73285" lon="2.08316">
        <ele>159.519</ele>
        <time>2013-08-01T04:52:00Z</time>
      </trkpt>
      <trkpt lat="48.73308" lon="2.08352">
        <ele>154.494</ele>
        <time>2013-08-01T04:52:05Z</time>
      </trkpt>
      <trkpt lat="48.73329" lon="2.08385">
        <ele>149.968</ele>
        <time>2013-08-01T04:52:09Z</time>
      </trkpt>
      <trkpt lat="48.73338" lon="2.08401">
        <ele>147.747</ele>
        <time>2013-08-01T04:52:11Z</time>
      </trkpt>
      <trkpt lat="48.73351" lon="2.08423">
        <ele>144.591</ele>
        <time>2013-08-01T04:52:14Z</time>
      </trkpt>
      <trkpt lat="48.73363" lon="2.08448">
        <ele>142.019</ele>
        <time>2013-08-01T04:52:18Z</time>
      </trkpt>
      <trkpt lat="48.73373" lon="2.0846">
        <ele>140.039</ele>
        <time>2013-08-01T04:52:21Z</time>
      </trkpt>
      <trkpt lat="48.73386" lon="2.08458">
        <ele>138.59</ele>
        <time>2013-08-01T04:52:24Z</time>
      </trkpt>
      <trkpt lat="48.73408" lon="2.08438">
        <ele>137.521</ele>
        <time>2013-08-01T04:52:30Z</time>
      </trkpt>
      <trkpt lat="48.73419" lon="2.08429">
        <ele>137.649</ele>
        <time>2013-08-01T04:52:33Z</time>
      </trkpt>
      <trkpt lat="48.73435" lon="2.08414">
        <ele>137.742</ele>
        <time>2013-08-01T04:52:37Z</time>
      </trkpt>
      <trkpt lat="48.73457" lon="2.08379">
        <ele>136.292</ele>
        <time>2013-08-01T04:52:42Z</time>
      </trkpt>
      <trkpt lat="48.73479" lon="2.08356">
        <ele>135.093</ele>
        <time>2013-08-01T04:52:46Z</time>
      </trkpt>
      <trkpt lat="48.73485" lon="2.08355">
        <ele>134.736</ele>
        <time>2013-08-01T04:52:47Z</time>
      </trkpt>
      <trkpt lat="48.73522" lon="2.08346">
        <ele>133.723</ele>
        <time>2013-08-01T04:52:53Z</time>
      </trkpt>
      <trkpt lat="48.73551" lon="2.08327">
        <ele>132.856</ele>
        <time>2013-08-01T04:52:58Z</time>
      </trkpt>
      <trkpt lat="48.73566" lon="2.08314">
        <ele>132.097</ele>
        <time>2013-08-01T04:53:01Z</time>
      </trkpt>
      <trkpt lat="48.73608" lon="2.08298">
        <ele>131.04</ele>
        <time>2013-08-01T04:53:08Z</time>
      </trkpt>
      <trkpt lat="48.73635" lon="2.08293">
        <ele>130.796</ele>
        <time>2013-08-01T04:53:13Z</time>
      </trkpt>
      <trkpt lat="48.73674" lon="2.08292">
        <ele>131.588</ele>
        <time>2013-08-01T04:53:21Z</time>
      </trkpt>
      <trkpt lat="48.73708" lon="2.08285">
        <ele>132.583</ele>
        <time>2013-08-01T04:53:29Z</time>
      </trkpt>
      <trkpt lat="48.73733" lon="2.08271">
        <ele>133.656</ele>
        <time>2013-08-01T04:53:36Z</time>
      </trkpt>
      <trkpt lat="48.73754" lon="2.08254">
        <ele>134.062</ele>
        <time>2013-08-01T04:53:42Z</time>
      </trkpt>
      <trkpt lat="48.73779" lon="2.08223">
        <ele>132.989</ele>
        <time>2013-08-01T04:53:48Z</time>
      </trkpt>
      <trkpt lat="48.738" lon="2.08189">
        <ele>132.338</ele>
        <time>2013-08-01T04:53:54Z</time>
      </trkpt>
      <trkpt lat="48.73822" lon="2.08159">
        <ele>132.387</ele>
        <time>2013-08-01T04:54:00Z</time>
      </trkpt>
      <trkpt lat="48.7383" lon="2.08144">
        <ele>132.406</ele>
        <time>2013-08-01T04:54:03Z</time>
      </trkpt>
      <trkpt lat="48.7384" lon="2.08131">
        <ele>132.403</ele>
        <time>2013-08-01T04:54:06Z</time>
      </trkpt>
      <trkpt lat="48.73862" lon="2.08105">
        <ele>132</ele>
        <time>2013-08-01T04:54:12Z</time>
      </trkpt>
      <trkpt lat="48.73877" lon="2.08094">
        <ele>131.714</ele>
        <time>2013-08-01T04:54:16Z</time>
      </trkpt>
      <trkpt lat="48.73899" lon="2.08101">
        <ele>131.279</ele>
        <time>2013-08-01T04:54:21Z</time>
      </trkpt>
      <trkpt lat="48.73918" lon="2.08122">
        <ele>131.227</ele>
        <time>2013-08-01T04:54:27Z</time>
      </trkpt>
      <trkpt lat="48.73928" lon="2.0813">
        <ele>131.501</ele>
        <time>2013-08-01T04:54:30Z</time>
      </trkpt>
      <trkpt lat="48.73951" lon="2.08137">
        <ele>131.419</ele>
        <time>2013-08-01T04:54:35Z</time>
      </trkpt>
      <trkpt lat="48.73972" lon="2.08123">
        <ele>131.151</ele>
        <time>2013-08-01T04:54:40Z</time>
      </trkpt>
      <trkpt lat="48.73979" lon="2.08115">
        <ele>131.176</ele>
        <time>2013-08-01T04:54:42Z</time>
      </trkpt>
      <trkpt lat="48.73985" lon="2.08105">
        <ele>131.159</ele>
        <time>2013-08-01T04:54:44Z</time>
      </trkpt>
      <trkpt lat="48.73992" lon="2.08071">
        <ele>131.13</ele>
        <time>2013-08-01T04:54:49Z</time>
      </trkpt>
      <trkpt lat="48.73994" lon="2.0805">
        <ele>131.019</ele>
        <time>2013-08-01T04:54:52Z</time>
      </trkpt>
      <trkpt lat="48.74003" lon="2.08005">
        <ele>131.093</ele>
        <time>2013-08-01T04:54:59Z</time>
      </trkpt>
      <trkpt lat="48.74015" lon="2.07961">
        <ele>131.024</ele>
        <time>2013-08-01T04:55:06Z</time>
      </trkpt>
      <trkpt lat="48.74017" lon="2.07955">
        <ele>131.004</ele>
        <time>2013-08-01T04:55:07Z</time>
      </trkpt>
      <trkpt lat="48.74031" lon="2.07916">
        <ele>130.996</ele>
        <time>2013-08-01T04:55:14Z</time>
      </trkpt>
      <trkpt lat="48.74042" lon="2.07891">
        <ele>130.884</ele>
        <time>2013-08-01T04:55:19Z</time>
      </trkpt>
      <trkpt lat="48.74056" lon="2.07889">
        <ele>130.39</ele>
        <time>2013-08-01T04:55:23Z</time>
      </trkpt>
      <trkpt lat="48.74066" lon="2.07894">
        <ele>129.955</ele>
        <time>2013-08-01T04:55:25Z</time>
      </trkpt>
      <trkpt lat="48.74097" lon="2.07916">
        <ele>129.022</ele>
        <time>2013-08-01T04:55:32Z</time>
      </trkpt>
      <trkpt lat="48.74105" lon="2.07921">
        <ele>129.078</ele>
        <time>2013-08-01T04:55:34Z</time>
      </trkpt>
      <trkpt lat="48.7413" lon="2.07942">
        <ele>129.454</ele>
        <time>2013-08-01T04:55:41Z</time>
      </trkpt>
      <trkpt lat="48.74134" lon="2.07944">
        <ele>129.519</ele>
        <time>2013-08-01T04:55:42Z</time>
      </trkpt>
      <trkpt lat="48.74157" lon="2.07949">
        <ele>130.045</ele>
        <time>2013-08-01T04:55:49Z</time>
      </trkpt>
      <trkpt lat="48.74172" lon="2.07949">
        <ele>130.733</ele>
        <time>2013-08-01T04:55:54Z</time>
      </trkpt>
      <trkpt lat="48.74187" lon="2.07947">
        <ele>131.347</ele>
        <time>2013-08-01T04:55:59Z</time>
      </trkpt>
      <trkpt lat="48.74201" lon="2.07932">
        <ele>131.904</ele>
        <time>2013-08-01T04:56:04Z</time>
      </trkpt>
      <trkpt lat="48.7421" lon="2.07907">
        <ele>132.133</ele>
        <time>2013-08-01T04:56:09Z</time>
      </trkpt>
      <trkpt lat="48.74212" lon="2.07881">
        <ele>132.367</ele>
        <time>2013-08-01T04:56:14Z</time>
      </trkpt>
      <trkpt lat="48.7421" lon="2.07854">
        <ele>132.336</ele>
        <time>2013-08-01T04:56:19Z</time>
      </trkpt>
      <trkpt lat="48.74215" lon="2.07825">
        <ele>132.517</ele>
        <time>2013-08-01T04:56:24Z</time>
      </trkpt>
      <trkpt lat="48.7422" lon="2.07808">
        <ele>132.947</ele>
        <time>2013-08-01T04:56:28Z</time>
      </trkpt>
      <trkpt lat="48.74228" lon="2.0779">
        <ele>133.776</ele>
        <time>2013-08-01T04:56:34Z</time>
      </trkpt>
      <trkpt lat="48.74234" lon="2.07779">
        <ele>135.091</ele>
        <time>2013-08-01T04:56:40Z</time>
      </trkpt>
      <trkpt lat="48.74244" lon="2.07764">
        <ele>136.577</ele>
        <time>2013-08-01T04:56:47Z</time>
      </trkpt>
      <trkpt lat="48.74252" lon="2.07753">
        <ele>137.644</ele>
        <time>2013-08-01T04:56:52Z</time>
      </trkpt>
      <trkpt lat="48.7426" lon="2.07743">
        <ele>138.667</ele>
        <time>2013-08-01T04:56:59Z</time>
      </trkpt>
      <trkpt lat="48.74269" lon="2.07735">
        <ele>139.92</ele>
        <time>2013-08-01T04:57:06Z</time>
      </trkpt>
      <trkpt lat="48.74277" lon="2.07735">
        <ele>141.107</ele>
        <time>2013-08-01T04:57:12Z</time>
      </trkpt>
      <trkpt lat="48.74281" lon="2.07743">
        <ele>141.856</ele>
        <time>2013-08-01T04:57:17Z</time>
      </trkpt>
      <trkpt lat="48.74281" lon="2.07753">
        <ele>142.775</ele>
        <time>2013-08-01T04:57:23Z</time>
      </trkpt>
      <trkpt lat="48.74278" lon="2.07771">
        <ele>144.176</ele>
        <time>2013-08-01T04:57:31Z</time>
      </trkpt>
      <trkpt lat="48.74273" lon="2.07794">
        <ele>145.739</ele>
        <time>2013-08-01T04:57:41Z</time>
      </trkpt>
      <trkpt lat="48.74271" lon="2.07811">
        <ele>147</ele>
        <time>2013-08-01T04:57:49Z</time>
      </trkpt>
      <trkpt lat="48.74273" lon="2.07827">
        <ele>148.191</ele>
        <time>2013-08-01T04:57:56Z</time>
      </trkpt>
      <trkpt lat="48.74275" lon="2.07836">
        <ele>149.002</ele>
        <time>2013-08-01T04:58:00Z</time>
      </trkpt>
      <trkpt lat="48.74281" lon="2.07851">
        <ele>150.082</ele>
        <time>2013-08-01T04:58:08Z</time>
      </trkpt>
      <trkpt lat="48.74283" lon="2.07854">
        <ele>150.268</ele>
        <time>2013-08-01T04:58:10Z</time>
      </trkpt>
      <trkpt lat="48.74291" lon="2.07862">
        <ele>151.474</ele>
        <time>2013-08-01T04:58:17Z</time>
      </trkpt>
      <trkpt lat="48.74293" lon="2.07864">
        <ele>151.812</ele>
        <time>2013-08-01T04:58:19Z</time>
      </trkpt>
      <trkpt lat="48.74298" lon="2.07868">
        <ele>152.481</ele>
        <time>2013-08-01T04:58:23Z</time>
      </trkpt>
      <trkpt lat="48.74315" lon="2.0788">
        <ele>154.073</ele>
        <time>2013-08-01T04:58:33Z</time>
      </trkpt>
      <trkpt lat="48.74325" lon="2.07889">
        <ele>155.007</ele>
        <time>2013-08-01T04:58:40Z</time>
      </trkpt>
      <trkpt lat="48.74334" lon="2.07899">
        <ele>156.186</ele>
        <time>2013-08-01T04:58:48Z</time>
      </trkpt>
      <trkpt lat="48.74344" lon="2.07907">
        <ele>157.603</ele>
        <time>2013-08-01T04:58:56Z</time>
      </trkpt>
      <trkpt lat="48.7435" lon="2.07911">
        <ele>158.067</ele>
        <time>2013-08-01T04:59:00Z</time>
      </trkpt>
      <trkpt lat="48.7436" lon="2.07918">
        <ele>159.181</ele>
        <time>2013-08-01T04:59:08Z</time>
      </trkpt>
      <trkpt lat="48.7437" lon="2.07924">
        <ele>160.239</ele>
        <time>2013-08-01T04:59:15Z</time>
      </trkpt>
      <trkpt lat="48.74382" lon="2.07929">
        <ele>161.458</ele>
        <time>2013-08-01T04:59:24Z</time>
      </trkpt>
      <trkpt lat="48.74391" lon="2.07934">
        <ele>161.832</ele>
        <time>2013-08-01T04:59:30Z</time>
      </trkpt>
      <trkpt lat="48.74396" lon="2.07939">
        <ele>162.626</ele>
        <time>2013-08-01T04:59:35Z</time>
      </trkpt>
      <trkpt lat="48.74406" lon="2.07944">
        <ele>163.549</ele>
        <time>2013-08-01T04:59:42Z</time>
      </trkpt>
      <trkpt lat="48.74417" lon="2.07947">
        <ele>164.559</ele>
        <time>2013-08-01T04:59:48Z</time>
      </trkpt>
      <trkpt lat="48.74419" lon="2.07947">
        <ele>164.735</ele>
        <time>2013-08-01T04:59:49Z</time>
      </trkpt>
      <trkpt lat="48.74431" lon="2.07951">
        <ele>165.633</ele>
        <time>2013-08-01T04:59:56Z</time>
      </trkpt>
      <trkpt lat="48.74442" lon="2.07952">
        <ele>166.408</ele>
        <time>2013-08-01T05:00:03Z</time>
      </trkpt>
      <trkpt lat="48.74454" lon="2.07955">
        <ele>167.34</ele>
        <time>2013-08-01T05:00:10Z</time>
      </trkpt>
      <trkpt lat="48.74456" lon="2.07955">
        <ele>167.494</ele>
        <time>2013-08-01T05:00:11Z</time>
      </trkpt>
      <trkpt lat="48.74468" lon="2.07956">
        <ele>168.597</ele>
        <time>2013-08-01T05:00:18Z</time>
      </trkpt>
      <trkpt lat="48.74474" lon="2.07958">
        <ele>169.232</ele>
        <time>2013-08-01T05:00:22Z</time>
      </trkpt>
      <trkpt lat="48.74487" lon="2.07966">
        <ele>170.061</ele>
        <time>2013-08-01T05:00:29Z</time>
      </trkpt>
      <trkpt lat="48.74507" lon="2.07987">
        <ele>169.899</ele>
        <time>2013-08-01T05:00:37Z</time>
      </trkpt>
      <trkpt lat="48.74511" lon="2.07991">
        <ele>169.911</ele>
        <time>2013-08-01T05:00:39Z</time>
      </trkpt>
      <trkpt lat="48.74525" lon="2.08004">
        <ele>170.508</ele>
        <time>2013-08-01T05:00:47Z</time>
      </trkpt>
      <trkpt lat="48.74531" lon="2.08019">
        <ele>170.659</ele>
        <time>2013-08-01T05:00:52Z</time>
      </trkpt>
      <trkpt lat="48.74533" lon="2.08026">
        <ele>170.433</ele>
        <time>2013-08-01T05:00:54Z</time>
      </trkpt>
      <trkpt lat="48.74533" lon="2.0804">
        <ele>169.685</ele>
        <time>2013-08-01T05:00:57Z</time>
      </trkpt>
      <trkpt lat="48.74535" lon="2.08071">
        <ele>168.643</ele>
        <time>2013-08-01T05:01:01Z</time>
      </trkpt>
      <trkpt lat="48.74542" lon="2.08073">
        <ele>168.829</ele>
        <time>2013-08-01T05:01:04Z</time>
      </trkpt>
      <trkpt lat="48.74544" lon="2.08073">
        <ele>169.014</ele>
        <time>2013-08-01T05:01:05Z</time>
      </trkpt>
      <trkpt lat="48.74556" lon="2.08072">
        <ele>171.056</ele>
        <time>2013-08-01T05:01:14Z</time>
      </trkpt>
      <trkpt lat="48.7457" lon="2.08073">
        <ele>172.847</ele>
        <time>2013-08-01T05:01:23Z</time>
      </trkpt>
      <trkpt lat="48.74573" lon="2.08076">
        <ele>173.368</ele>
        <time>2013-08-01T05:01:25Z</time>
      </trkpt>
      <trkpt lat="48.74584" lon="2.08064">
        <ele>174.929</ele>
        <time>2013-08-01T05:01:33Z</time>
      </trkpt>
      <trkpt lat="48.74593" lon="2.08039">
        <ele>174.982</ele>
        <time>2013-08-01T05:01:40Z</time>
      </trkpt>
      <trkpt lat="48.74605" lon="2.08004">
        <ele>175.027</ele>
        <time>2013-08-01T05:01:48Z</time>
      </trkpt>
      <trkpt lat="48.74619" lon="2.07967">
        <ele>175.053</ele>
        <time>2013-08-01T05:01:56Z</time>
      </trkpt>
      <trkpt lat="48.74635" lon="2.07924">
        <ele>175.456</ele>
        <time>2013-08-01T05:02:05Z</time>
      </trkpt>
      <trkpt lat="48.74652" lon="2.07877">
        <ele>176.443</ele>
        <time>2013-08-01T05:02:16Z</time>
      </trkpt>
      <trkpt lat="48.74666" lon="2.07841">
        <ele>177.221</ele>
        <time>2013-08-01T05:02:25Z</time>
      </trkpt>
      <trkpt lat="48.74681" lon="2.07799">
        <ele>177.857</ele>
        <time>2013-08-01T05:02:35Z</time>
      </trkpt>
      <trkpt lat="48.74699" lon="2.0775">
        <ele>178.811</ele>
        <time>2013-08-01T05:02:46Z</time>
      </trkpt>
      <trkpt lat="48.7472" lon="2.07694">
        <ele>179.685</ele>
        <time>2013-08-01T05:02:58Z</time>
      </trkpt>
      <trkpt lat="48.74741" lon="2.07637">
        <ele>180.552</ele>
        <time>2013-08-01T05:03:10Z</time>
      </trkpt>
      <trkpt lat="48.7476" lon="2.07583">
        <ele>181.165</ele>
        <time>2013-08-01T05:03:21Z</time>
      </trkpt>
      <trkpt lat="48.7478" lon="2.07528">
        <ele>181.365</ele>
        <time>2013-08-01T05:03:32Z</time>
      </trkpt>
      <trkpt lat="48.748" lon="2.07474">
        <ele>181.686</ele>
        <time>2013-08-01T05:03:43Z</time>
      </trkpt>
      <trkpt lat="48.74818" lon="2.07423">
        <ele>182.075</ele>
        <time>2013-08-01T05:03:53Z</time>
      </trkpt>
      <trkpt lat="48.74838" lon="2.07367">
        <ele>182.474</ele>
        <time>2013-08-01T05:04:04Z</time>
      </trkpt>
      <trkpt lat="48.74858" lon="2.07304">
        <ele>182.76</ele>
        <time>2013-08-01T05:04:16Z</time>
      </trkpt>
      <trkpt lat="48.74874" lon="2.07259">
        <ele>182.744</ele>
        <time>2013-08-01T05:04:24Z</time>
      </trkpt>
      <trkpt lat="48.74889" lon="2.07215">
        <ele>183.125</ele>
        <time>2013-08-01T05:04:32Z</time>
      </trkpt>
      <trkpt lat="48.74907" lon="2.07164">
        <ele>183.107</ele>
        <time>2013-08-01T05:04:41Z</time>
      </trkpt>
      <trkpt lat="48.74928" lon="2.07109">
        <ele>183.154</ele>
        <time>2013-08-01T05:04:50Z</time>
      </trkpt>
      <trkpt lat="48.74954" lon="2.07041">
        <ele>183.525</ele>
        <time>2013-08-01T05:05:02Z</time>
      </trkpt>
      <trkpt lat="48.74958" lon="2.0703">
        <ele>183.521</ele>
        <time>2013-08-01T05:05:04Z</time>
      </trkpt>
      <trkpt lat="48.74978" lon="2.06982">
        <ele>183.847</ele>
        <time>2013-08-01T05:05:13Z</time>
      </trkpt>
      <trkpt lat="48.74999" lon="2.06934">
        <ele>184.17</ele>
        <time>2013-08-01T05:05:22Z</time>
      </trkpt>
      <trkpt lat="48.75011" lon="2.06905">
        <ele>184.268</ele>
        <time>2013-08-01T05:05:28Z</time>
      </trkpt>
      <trkpt lat="48.75028" lon="2.06856">
        <ele>184.096</ele>
        <time>2013-08-01T05:05:37Z</time>
      </trkpt>
      <trkpt lat="48.75038" lon="2.06815">
        <ele>184.459</ele>
        <time>2013-08-01T05:05:44Z</time>
      </trkpt>
      <trkpt lat="48.75048" lon="2.06771">
        <ele>184.684</ele>
        <time>2013-08-01T05:05:52Z</time>
      </trkpt>
      <trkpt lat="48.75049" lon="2.06767">
        <ele>184.728</ele>
        <time>2013-08-01T05:05:53Z</time>
      </trkpt>
      <trkpt lat="48.75057" lon="2.06771">
        <ele>184.748</ele>
        <time>2013-08-01T05:05:57Z</time>
      </trkpt>
      <trkpt lat="48.75069" lon="2.06782">
        <ele>184.74</ele>
        <time>2013-08-01T05:06:01Z</time>
      </trkpt>
      <trkpt lat="48.75073" lon="2.06783">
        <ele>184.711</ele>
        <time>2013-08-01T05:06:02Z</time>
      </trkpt>
      <trkpt lat="48.75088" lon="2.06784">
        <ele>184.68</ele>
        <time>2013-08-01T05:06:06Z</time>
      </trkpt>
      <trkpt lat="48.75103" lon="2.06771">
        <ele>184.599</ele>
        <time>2013-08-01T05:06:10Z</time>
      </trkpt>
      <trkpt lat="48.75114" lon="2.06763">
        <ele>184.588</ele>
        <time>2013-08-01T05:06:13Z</time>
      </trkpt>
      <trkpt lat="48.7513" lon="2.06766">
        <ele>184.787</ele>
        <time>2013-08-01T05:06:17Z</time>
      </trkpt>
      <trkpt lat="48.75138" lon="2.0677">
        <ele>184.784</ele>
        <time>2013-08-01T05:06:19Z</time>
      </trkpt>
      <trkpt lat="48.7517" lon="2.06795">
        <ele>184.793</ele>
        <time>2013-08-01T05:06:27Z</time>
      </trkpt>
      <trkpt lat="48.75182" lon="2.06805">
        <ele>184.763</ele>
        <time>2013-08-01T05:06:30Z</time>
      </trkpt>
      <trkpt lat="48.7519" lon="2.06813">
        <ele>184.653</ele>
        <time>2013-08-01T05:06:32Z</time>
      </trkpt>
      <trkpt lat="48.75234" lon="2.06854">
        <ele>184.475</ele>
        <time>2013-08-01T05:06:43Z</time>
      </trkpt>
      <trkpt lat="48.75272" lon="2.06883">
        <ele>184.08</ele>
        <time>2013-08-01T05:06:52Z</time>
      </trkpt>
      <trkpt lat="48.75313" lon="2.06916">
        <ele>183.983</ele>
        <time>2013-08-01T05:07:02Z</time>
      </trkpt>
      <trkpt lat="48.7536" lon="2.06952">
        <ele>183.781</ele>
        <time>2013-08-01T05:07:13Z</time>
      </trkpt>
      <trkpt lat="48.75407" lon="2.06988">
        <ele>183.569</ele>
        <time>2013-08-01T05:07:24Z</time>
      </trkpt>
      <trkpt lat="48.75443" lon="2.07017">
        <ele>183.663</ele>
        <time>2013-08-01T05:07:33Z</time>
      </trkpt>
      <trkpt lat="48.75479" lon="2.07045">
        <ele>183.778</ele>
        <time>2013-08-01T05:07:42Z</time>
      </trkpt>
      <trkpt lat="48.75524" lon="2.07077">
        <ele>183.947</ele>
        <time>2013-08-01T05:07:53Z</time>
      </trkpt>
      <trkpt lat="48.75551" lon="2.07096">
        <ele>184.137</ele>
        <time>2013-08-01T05:08:00Z</time>
      </trkpt>
      <trkpt lat="48.75559" lon="2.07102">
        <ele>184.113</ele>
        <time>2013-08-01T05:08:02Z</time>
      </trkpt>
      <trkpt lat="48.75571" lon="2.0713">
        <ele>184.044</ele>
        <time>2013-08-01T05:08:07Z</time>
      </trkpt>
      <trkpt lat="48.75572" lon="2.07137">
        <ele>184.008</ele>
        <time>2013-08-01T05:08:08Z</time>
      </trkpt>
      <trkpt lat="48.75584" lon="2.07165">
        <ele>183.978</ele>
        <time>2013-08-01T05:08:13Z</time>
      </trkpt>
      <trkpt lat="48.75586" lon="2.0719">
        <ele>183.986</ele>
        <time>2013-08-01T05:08:17Z</time>
      </trkpt>
      <trkpt lat="48.75579" lon="2.07218">
        <ele>183.821</ele>
        <time>2013-08-01T05:08:21Z</time>
      </trkpt>
      <trkpt lat="48.75562" lon="2.07286">
        <ele>183.525</ele>
        <time>2013-08-01T05:08:31Z</time>
      </trkpt>
      <trkpt lat="48.75546" lon="2.07351">
        <ele>183.093</ele>
        <time>2013-08-01T05:08:40Z</time>
      </trkpt>
      <trkpt lat="48.75531" lon="2.07411">
        <ele>182.836</ele>
        <time>2013-08-01T05:08:48Z</time>
      </trkpt>
      <trkpt lat="48.75516" lon="2.0748">
        <ele>182.504</ele>
        <time>2013-08-01T05:08:57Z</time>
      </trkpt>
      <trkpt lat="48.755" lon="2.07496">
        <ele>182.43</ele>
        <time>2013-08-01T05:09:01Z</time>
      </trkpt>
      <trkpt lat="48.75485" lon="2.07517">
        <ele>182.183</ele>
        <time>2013-08-01T05:09:05Z</time>
      </trkpt>
      <trkpt lat="48.75484" lon="2.07538">
        <ele>182.151</ele>
        <time>2013-08-01T05:09:08Z</time>
      </trkpt>
      <trkpt lat="48.75492" lon="2.07556">
        <ele>182.298</ele>
        <time>2013-08-01T05:09:11Z</time>
      </trkpt>
      <trkpt lat="48.75507" lon="2.07562">
        <ele>182.485</ele>
        <time>2013-08-01T05:09:14Z</time>
      </trkpt>
      <trkpt lat="48.75528" lon="2.07578">
        <ele>182.697</ele>
        <time>2013-08-01T05:09:19Z</time>
      </trkpt>
      <trkpt lat="48.75558" lon="2.07639">
        <ele>182.537</ele>
        <time>2013-08-01T05:09:28Z</time>
      </trkpt>
      <trkpt lat="48.75596" lon="2.07716">
        <ele>181.967</ele>
        <time>2013-08-01T05:09:39Z</time>
      </trkpt>
      <trkpt lat="48.75618" lon="2.07765">
        <ele>181.806</ele>
        <time>2013-08-01T05:09:46Z</time>
      </trkpt>
      <trkpt lat="48.75651" lon="2.07834">
        <ele>181.426</ele>
        <time>2013-08-01T05:09:56Z</time>
      </trkpt>
      <trkpt lat="48.75676" lon="2.07888">
        <ele>181.147</ele>
        <time>2013-08-01T05:10:04Z</time>
      </trkpt>
      <trkpt lat="48.75679" lon="2.07894">
        <ele>181.142</ele>
        <time>2013-08-01T05:10:05Z</time>
      </trkpt>
      <trkpt lat="48.75688" lon="2.07929">
        <ele>181.092</ele>
        <time>2013-08-01T05:10:10Z</time>
      </trkpt>
      <trkpt lat="48.75692" lon="2.07934">
        <ele>181.13</ele>
        <time>2013-08-01T05:10:11Z</time>
      </trkpt>
      <trkpt lat="48.75709" lon="2.07981">
        <ele>180.65</ele>
        <time>2013-08-01T05:10:18Z</time>
      </trkpt>
      <trkpt lat="48.75716" lon="2.08002">
        <ele>180.379</ele>
        <time>2013-08-01T05:10:21Z</time>
      </trkpt>
      <trkpt lat="48.75714" lon="2.08031">
        <ele>180.057</ele>
        <time>2013-08-01T05:10:25Z</time>
      </trkpt>
      <trkpt lat="48.75711" lon="2.08063">
        <ele>179.713</ele>
        <time>2013-08-01T05:10:29Z</time>
      </trkpt>
      <trkpt lat="48.757" lon="2.08095">
        <ele>179.206</ele>
        <time>2013-08-01T05:10:33Z</time>
      </trkpt>
      <trkpt lat="48.75665" lon="2.08136">
        <ele>177.881</ele>
        <time>2013-08-01T05:10:40Z</time>
      </trkpt>
      <trkpt lat="48.75627" lon="2.08156">
        <ele>177.511</ele>
        <time>2013-08-01T05:10:47Z</time>
      </trkpt>
      <trkpt lat="48.75593" lon="2.0818">
        <ele>177.73</ele>
        <time>2013-08-01T05:10:54Z</time>
      </trkpt>
      <trkpt lat="48.75567" lon="2.08212">
        <ele>177.801</ele>
        <time>2013-08-01T05:11:00Z</time>
      </trkpt>
      <trkpt lat="48.7555" lon="2.08246">
        <ele>177.746</ele>
        <time>2013-08-01T05:11:05Z</time>
      </trkpt>
      <trkpt lat="48.75538" lon="2.08285">
        <ele>177.599</ele>
        <time>2013-08-01T05:11:10Z</time>
      </trkpt>
      <trkpt lat="48.75537" lon="2.0832">
        <ele>177.501</ele>
        <time>2013-08-01T05:11:14Z</time>
      </trkpt>
      <trkpt lat="48.75536" lon="2.08355">
        <ele>177.63</ele>
        <time>2013-08-01T05:11:18Z</time>
      </trkpt>
      <trkpt lat="48.75534" lon="2.08423">
        <ele>178.602</ele>
        <time>2013-08-01T05:11:26Z</time>
      </trkpt>
      <trkpt lat="48.75536" lon="2.08492">
        <ele>180.245</ele>
        <time>2013-08-01T05:11:34Z</time>
      </trkpt>
      <trkpt lat="48.75538" lon="2.08517">
        <ele>181.028</ele>
        <time>2013-08-01T05:11:37Z</time>
      </trkpt>
      <trkpt lat="48.75549" lon="2.08586">
        <ele>182.523</ele>
        <time>2013-08-01T05:11:46Z</time>
      </trkpt>
      <trkpt lat="48.75568" lon="2.08645">
        <ele>182.612</ele>
        <time>2013-08-01T05:11:54Z</time>
      </trkpt>
      <trkpt lat="48.756" lon="2.087">
        <ele>181.565</ele>
        <time>2013-08-01T05:12:02Z</time>
      </trkpt>
      <trkpt lat="48.75633" lon="2.08735">
        <ele>180.332</ele>
        <time>2013-08-01T05:12:08Z</time>
      </trkpt>
      <trkpt lat="48.75639" lon="2.0874">
        <ele>180.071</ele>
        <time>2013-08-01T05:12:09Z</time>
      </trkpt>
      <trkpt lat="48.75688" lon="2.08767">
        <ele>178.456</ele>
        <time>2013-08-01T05:12:16Z</time>
      </trkpt>
      <trkpt lat="48.75741" lon="2.0879">
        <ele>176.444</ele>
        <time>2013-08-01T05:12:23Z</time>
      </trkpt>
      <trkpt lat="48.75796" lon="2.08814">
        <ele>175.305</ele>
        <time>2013-08-01T05:12:31Z</time>
      </trkpt>
      <trkpt lat="48.75857" lon="2.08841">
        <ele>175.122</ele>
        <time>2013-08-01T05:12:41Z</time>
      </trkpt>
      <trkpt lat="48.75912" lon="2.08866">
        <ele>175.462</ele>
        <time>2013-08-01T05:12:51Z</time>
      </trkpt>
      <trkpt lat="48.7598" lon="2.08898">
        <ele>176.134</ele>
        <time>2013-08-01T05:13:04Z</time>
      </trkpt>
      <trkpt lat="48.76036" lon="2.08925">
        <ele>176.486</ele>
        <time>2013-08-01T05:13:15Z</time>
      </trkpt>
      <trkpt lat="48.76098" lon="2.0895">
        <ele>176.839</ele>
        <time>2013-08-01T05:13:27Z</time>
      </trkpt>
      <trkpt lat="48.76103" lon="2.0895">
        <ele>176.968</ele>
        <time>2013-08-01T05:13:28Z</time>
      </trkpt>
      <trkpt lat="48.76119" lon="2.08949">
        <ele>177.209</ele>
        <time>2013-08-01T05:13:31Z</time>
      </trkpt>
      <trkpt lat="48.76139" lon="2.08941">
        <ele>177.318</ele>
        <time>2013-08-01T05:13:35Z</time>
      </trkpt>
      <trkpt lat="48.76175" lon="2.08908">
        <ele>177.234</ele>
        <time>2013-08-01T05:13:43Z</time>
      </trkpt>
      <trkpt lat="48.76179" lon="2.08903">
        <ele>177.207</ele>
        <time>2013-08-01T05:13:44Z</time>
      </trkpt>
      <trkpt lat="48.76184" lon="2.08879">
        <ele>177.296</ele>
        <time>2013-08-01T05:13:48Z</time>
      </trkpt>
      <trkpt lat="48.76188" lon="2.08843">
        <ele>177.431</ele>
        <time>2013-08-01T05:13:54Z</time>
      </trkpt>
      <trkpt lat="48.76192" lon="2.08823">
        <ele>177.475</ele>
        <time>2013-08-01T05:13:58Z</time>
      </trkpt>
      <trkpt lat="48.7619" lon="2.08819">
        <ele>177.465</ele>
        <time>2013-08-01T05:13:59Z</time>
      </trkpt>
      <trkpt lat="48.76163" lon="2.0877">
        <ele>177.302</ele>
        <time>2013-08-01T05:14:08Z</time>
      </trkpt>
      <trkpt lat="48.76147" lon="2.08742">
        <ele>177.046</ele>
        <time>2013-08-01T05:14:13Z</time>
      </trkpt>
      <trkpt lat="48.76142" lon="2.08718">
        <ele>176.823</ele>
        <time>2013-08-01T05:14:17Z</time>
      </trkpt>
      <trkpt lat="48.76143" lon="2.08703">
        <ele>176.566</ele>
        <time>2013-08-01T05:14:20Z</time>
      </trkpt>
      <trkpt lat="48.76139" lon="2.08687">
        <ele>176.244</ele>
        <time>2013-08-01T05:14:24Z</time>
      </trkpt>
      <trkpt lat="48.76147" lon="2.08678">
        <ele>176.109</ele>
        <time>2013-08-01T05:14:27Z</time>
      </trkpt>
      <trkpt lat="48.7615" lon="2.08674">
        <ele>176.089</ele>
        <time>2013-08-01T05:14:28Z</time>
      </trkpt>
      <trkpt lat="48.76185" lon="2.08632">
        <ele>175.942</ele>
        <time>2013-08-01T05:14:38Z</time>
      </trkpt>
      <trkpt lat="48.76224" lon="2.08584">
        <ele>176.108</ele>
        <time>2013-08-01T05:14:48Z</time>
      </trkpt>
      <trkpt lat="48.76257" lon="2.08544">
        <ele>176.036</ele>
        <time>2013-08-01T05:14:57Z</time>
      </trkpt>
      <trkpt lat="48.7625" lon="2.0853">
        <ele>176.201</ele>
        <time>2013-08-01T05:15:01Z</time>
      </trkpt>
      <trkpt lat="48.76238" lon="2.08507">
        <ele>176.347</ele>
        <time>2013-08-01T05:15:06Z</time>
      </trkpt>
      <trkpt lat="48.76227" lon="2.08488">
        <ele>176.25</ele>
        <time>2013-08-01T05:15:10Z</time>
      </trkpt>
      <trkpt lat="48.76215" lon="2.08469">
        <ele>176.289</ele>
        <time>2013-08-01T05:15:14Z</time>
      </trkpt>
      <trkpt lat="48.762" lon="2.08442">
        <ele>176.347</ele>
        <time>2013-08-01T05:15:20Z</time>
      </trkpt>
      <trkpt lat="48.762" lon="2.0843">
        <ele>176.46</ele>
        <time>2013-08-01T05:15:24Z</time>
      </trkpt>
      <trkpt lat="48.76204" lon="2.08429">
        <ele>176.479</ele>
        <time>2013-08-01T05:15:27Z</time>
      </trkpt>
      <trkpt lat="48.7622" lon="2.08407">
        <ele>176.451</ele>
        <time>2013-08-01T05:15:34Z</time>
      </trkpt>
      <trkpt lat="48.76244" lon="2.08375">
        <ele>176.613</ele>
        <time>2013-08-01T05:15:43Z</time>
      </trkpt>
      <trkpt lat="48.76255" lon="2.08358">
        <ele>176.502</ele>
        <time>2013-08-01T05:15:49Z</time>
      </trkpt>
      <trkpt lat="48.76255" lon="2.08358">
        <ele>176.479</ele>
        <time>2013-08-01T05:15:50Z</time>
      </trkpt>
      <trkpt lat="48.76256" lon="2.0836">
        <ele>176.646</ele>
        <time>2013-08-01T05:15:59Z</time>
      </trkpt>
      <trkpt lat="48.76263" lon="2.08355">
        <ele>155.119</ele>
        <time>2013-08-01T15:03:11Z</time>
      </trkpt>
      <trkpt lat="48.76264" lon="2.08355">
        <ele>155.119</ele>
        <time>2013-08-01T15:03:12Z</time>
      </trkpt>
      <trkpt lat="48.76264" lon="2.08356">
        <ele>155.259</ele>
        <time>2013-08-01T15:03:18Z</time>
      </trkpt>
      <trkpt lat="48.76264" lon="2.08357">
        <ele>155.312</ele>
        <time>2013-08-01T15:03:19Z</time>
      </trkpt>
      <trkpt lat="48.76264" lon="2.08362">
        <ele>155.429</ele>
        <time>2013-08-01T15:03:23Z</time>
      </trkpt>
      <trkpt lat="48.76269" lon="2.08372">
        <ele>155.305</ele>
        <time>2013-08-01T15:03:28Z</time>
      </trkpt>
      <trkpt lat="48.76267" lon="2.08382">
        <ele>155.171</ele>
        <time>2013-08-01T15:03:31Z</time>
      </trkpt>
      <trkpt lat="48.76257" lon="2.08395">
        <ele>154.927</ele>
        <time>2013-08-01T15:03:35Z</time>
      </trkpt>
      <trkpt lat="48.76248" lon="2.08405">
        <ele>154.722</ele>
        <time>2013-08-01T15:03:38Z</time>
      </trkpt>
      <trkpt lat="48.76232" lon="2.0842">
        <ele>154.564</ele>
        <time>2013-08-01T15:03:43Z</time>
      </trkpt>
      <trkpt lat="48.76224" lon="2.08432">
        <ele>154.618</ele>
        <time>2013-08-01T15:03:46Z</time>
      </trkpt>
      <trkpt lat="48.76217" lon="2.08444">
        <ele>154.709</ele>
        <time>2013-08-01T15:03:49Z</time>
      </trkpt>
      <trkpt lat="48.76213" lon="2.08446">
        <ele>154.721</ele>
        <time>2013-08-01T15:03:52Z</time>
      </trkpt>
      <trkpt lat="48.76212" lon="2.08456">
        <ele>154.726</ele>
        <time>2013-08-01T15:03:56Z</time>
      </trkpt>
      <trkpt lat="48.76226" lon="2.08483">
        <ele>155.043</ele>
        <time>2013-08-01T15:04:03Z</time>
      </trkpt>
      <trkpt lat="48.76238" lon="2.08507">
        <ele>154.976</ele>
        <time>2013-08-01T15:04:08Z</time>
      </trkpt>
      <trkpt lat="48.76255" lon="2.08539">
        <ele>155.176</ele>
        <time>2013-08-01T15:04:15Z</time>
      </trkpt>
      <trkpt lat="48.76256" lon="2.08542">
        <ele>155.204</ele>
        <time>2013-08-01T15:04:16Z</time>
      </trkpt>
      <trkpt lat="48.7625" lon="2.08555">
        <ele>155.076</ele>
        <time>2013-08-01T15:04:20Z</time>
      </trkpt>
      <trkpt lat="48.76227" lon="2.08582">
        <ele>155.172</ele>
        <time>2013-08-01T15:04:28Z</time>
      </trkpt>
      <trkpt lat="48.7621" lon="2.08601">
        <ele>155.224</ele>
        <time>2013-08-01T15:04:33Z</time>
      </trkpt>
      <trkpt lat="48.76183" lon="2.08631">
        <ele>155.298</ele>
        <time>2013-08-01T15:04:41Z</time>
      </trkpt>
      <trkpt lat="48.76165" lon="2.08655">
        <ele>154.98</ele>
        <time>2013-08-01T15:04:47Z</time>
      </trkpt>
      <trkpt lat="48.76136" lon="2.08689">
        <ele>154.55</ele>
        <time>2013-08-01T15:04:56Z</time>
      </trkpt>
      <trkpt lat="48.76115" lon="2.08719">
        <ele>154.858</ele>
        <time>2013-08-01T15:05:04Z</time>
      </trkpt>
      <trkpt lat="48.76125" lon="2.08741">
        <ele>155.254</ele>
        <time>2013-08-01T15:05:09Z</time>
      </trkpt>
      <trkpt lat="48.76136" lon="2.08761">
        <ele>155.643</ele>
        <time>2013-08-01T15:05:13Z</time>
      </trkpt>
      <trkpt lat="48.76143" lon="2.0877">
        <ele>155.581</ele>
        <time>2013-08-01T15:05:15Z</time>
      </trkpt>
      <trkpt lat="48.76166" lon="2.08811">
        <ele>156.196</ele>
        <time>2013-08-01T15:05:23Z</time>
      </trkpt>
      <trkpt lat="48.76184" lon="2.08845">
        <ele>156.733</ele>
        <time>2013-08-01T15:05:30Z</time>
      </trkpt>
      <trkpt lat="48.76181" lon="2.08874">
        <ele>156.821</ele>
        <time>2013-08-01T15:05:35Z</time>
      </trkpt>
      <trkpt lat="48.76174" lon="2.08883">
        <ele>156.739</ele>
        <time>2013-08-01T15:05:37Z</time>
      </trkpt>
      <trkpt lat="48.7615" lon="2.08916">
        <ele>156.515</ele>
        <time>2013-08-01T15:05:44Z</time>
      </trkpt>
      <trkpt lat="48.76129" lon="2.08932">
        <ele>156.36</ele>
        <time>2013-08-01T15:05:49Z</time>
      </trkpt>
      <trkpt lat="48.7611" lon="2.08937">
        <ele>156.054</ele>
        <time>2013-08-01T15:05:53Z</time>
      </trkpt>
      <trkpt lat="48.76072" lon="2.08928">
        <ele>155.422</ele>
        <time>2013-08-01T15:06:01Z</time>
      </trkpt>
      <trkpt lat="48.76034" lon="2.08909">
        <ele>155.517</ele>
        <time>2013-08-01T15:06:09Z</time>
      </trkpt>
      <trkpt lat="48.75986" lon="2.08888">
        <ele>155.032</ele>
        <time>2013-08-01T15:06:19Z</time>
      </trkpt>
      <trkpt lat="48.75929" lon="2.08863">
        <ele>154.421</ele>
        <time>2013-08-01T15:06:31Z</time>
      </trkpt>
      <trkpt lat="48.75883" lon="2.08842">
        <ele>153.979</ele>
        <time>2013-08-01T15:06:41Z</time>
      </trkpt>
      <trkpt lat="48.75832" lon="2.08819">
        <ele>153.988</ele>
        <time>2013-08-01T15:06:52Z</time>
      </trkpt>
      <trkpt lat="48.75787" lon="2.08798">
        <ele>154.342</ele>
        <time>2013-08-01T15:07:02Z</time>
      </trkpt>
      <trkpt lat="48.75738" lon="2.08776">
        <ele>154.654</ele>
        <time>2013-08-01T15:07:13Z</time>
      </trkpt>
      <trkpt lat="48.75698" lon="2.08758">
        <ele>155.58</ele>
        <time>2013-08-01T15:07:22Z</time>
      </trkpt>
      <trkpt lat="48.7566" lon="2.08739">
        <ele>157.214</ele>
        <time>2013-08-01T15:07:31Z</time>
      </trkpt>
      <trkpt lat="48.75632" lon="2.08718">
        <ele>158.2</ele>
        <time>2013-08-01T15:07:38Z</time>
      </trkpt>
      <trkpt lat="48.756" lon="2.08683">
        <ele>159.249</ele>
        <time>2013-08-01T15:07:47Z</time>
      </trkpt>
      <trkpt lat="48.75575" lon="2.08636">
        <ele>160.918</ele>
        <time>2013-08-01T15:07:56Z</time>
      </trkpt>
      <trkpt lat="48.75557" lon="2.0858">
        <ele>161.395</ele>
        <time>2013-08-01T15:08:05Z</time>
      </trkpt>
      <trkpt lat="48.75547" lon="2.08527">
        <ele>161.215</ele>
        <time>2013-08-01T15:08:12Z</time>
      </trkpt>
      <trkpt lat="48.75542" lon="2.08461">
        <ele>159.963</ele>
        <time>2013-08-01T15:08:19Z</time>
      </trkpt>
      <trkpt lat="48.75541" lon="2.08428">
        <ele>159.21</ele>
        <time>2013-08-01T15:08:22Z</time>
      </trkpt>
      <trkpt lat="48.75548" lon="2.08343">
        <ele>157.508</ele>
        <time>2013-08-01T15:08:29Z</time>
      </trkpt>
      <trkpt lat="48.7556" lon="2.0827">
        <ele>156.451</ele>
        <time>2013-08-01T15:08:35Z</time>
      </trkpt>
      <trkpt lat="48.75585" lon="2.08216">
        <ele>155.88</ele>
        <time>2013-08-01T15:08:41Z</time>
      </trkpt>
      <trkpt lat="48.75613" lon="2.08184">
        <ele>155.929</ele>
        <time>2013-08-01T15:08:46Z</time>
      </trkpt>
      <trkpt lat="48.7566" lon="2.08158">
        <ele>156.001</ele>
        <time>2013-08-01T15:08:54Z</time>
      </trkpt>
      <trkpt lat="48.75692" lon="2.08133">
        <ele>155.894</ele>
        <time>2013-08-01T15:09:00Z</time>
      </trkpt>
      <trkpt lat="48.75717" lon="2.08097">
        <ele>156.265</ele>
        <time>2013-08-01T15:09:06Z</time>
      </trkpt>
      <trkpt lat="48.75721" lon="2.08091">
        <ele>156.347</ele>
        <time>2013-08-01T15:09:07Z</time>
      </trkpt>
      <trkpt lat="48.7574" lon="2.08073">
        <ele>156.565</ele>
        <time>2013-08-01T15:09:11Z</time>
      </trkpt>
      <trkpt lat="48.75759" lon="2.08051">
        <ele>156.489</ele>
        <time>2013-08-01T15:09:15Z</time>
      </trkpt>
      <trkpt lat="48.75762" lon="2.08025">
        <ele>156.43</ele>
        <time>2013-08-01T15:09:18Z</time>
      </trkpt>
      <trkpt lat="48.75754" lon="2.08004">
        <ele>156.565</ele>
        <time>2013-08-01T15:09:21Z</time>
      </trkpt>
      <trkpt lat="48.75743" lon="2.07997">
        <ele>156.888</ele>
        <time>2013-08-01T15:09:23Z</time>
      </trkpt>
      <trkpt lat="48.75723" lon="2.07972">
        <ele>157.926</ele>
        <time>2013-08-01T15:09:28Z</time>
      </trkpt>
      <trkpt lat="48.75711" lon="2.07935">
        <ele>158.534</ele>
        <time>2013-08-01T15:09:33Z</time>
      </trkpt>
      <trkpt lat="48.75709" lon="2.07905">
        <ele>158.845</ele>
        <time>2013-08-01T15:09:37Z</time>
      </trkpt>
      <trkpt lat="48.75702" lon="2.07885">
        <ele>158.978</ele>
        <time>2013-08-01T15:09:40Z</time>
      </trkpt>
      <trkpt lat="48.75698" lon="2.07882">
        <ele>158.985</ele>
        <time>2013-08-01T15:09:41Z</time>
      </trkpt>
      <trkpt lat="48.75688" lon="2.07867">
        <ele>159.013</ele>
        <time>2013-08-01T15:09:45Z</time>
      </trkpt>
      <trkpt lat="48.75685" lon="2.07853">
        <ele>159.018</ele>
        <time>2013-08-01T15:09:48Z</time>
      </trkpt>
      <trkpt lat="48.75661" lon="2.07804">
        <ele>159.071</ele>
        <time>2013-08-01T15:09:57Z</time>
      </trkpt>
      <trkpt lat="48.75637" lon="2.07757">
        <ele>159.457</ele>
        <time>2013-08-01T15:10:05Z</time>
      </trkpt>
      <trkpt lat="48.75602" lon="2.07684">
        <ele>159.604</ele>
        <time>2013-08-01T15:10:16Z</time>
      </trkpt>
      <trkpt lat="48.75567" lon="2.0761">
        <ele>159.655</ele>
        <time>2013-08-01T15:10:27Z</time>
      </trkpt>
      <trkpt lat="48.75538" lon="2.07551">
        <ele>160.188</ele>
        <time>2013-08-01T15:10:36Z</time>
      </trkpt>
      <trkpt lat="48.75534" lon="2.07519">
        <ele>160.227</ele>
        <time>2013-08-01T15:10:40Z</time>
      </trkpt>
      <trkpt lat="48.75531" lon="2.07488">
        <ele>160.163</ele>
        <time>2013-08-01T15:10:44Z</time>
      </trkpt>
      <trkpt lat="48.75534" lon="2.07458">
        <ele>160.052</ele>
        <time>2013-08-01T15:10:48Z</time>
      </trkpt>
      <trkpt lat="48.75548" lon="2.07405">
        <ele>160.366</ele>
        <time>2013-08-01T15:10:55Z</time>
      </trkpt>
      <trkpt lat="48.75559" lon="2.07359">
        <ele>160.416</ele>
        <time>2013-08-01T15:11:01Z</time>
      </trkpt>
      <trkpt lat="48.75576" lon="2.07287">
        <ele>160.727</ele>
        <time>2013-08-01T15:11:10Z</time>
      </trkpt>
      <trkpt lat="48.75594" lon="2.07209">
        <ele>161.242</ele>
        <time>2013-08-01T15:11:20Z</time>
      </trkpt>
      <trkpt lat="48.75599" lon="2.07188">
        <ele>161.405</ele>
        <time>2013-08-01T15:11:23Z</time>
      </trkpt>
      <trkpt lat="48.75596" lon="2.07172">
        <ele>161.478</ele>
        <time>2013-08-01T15:11:27Z</time>
      </trkpt>
      <trkpt lat="48.7558" lon="2.07163">
        <ele>161.41</ele>
        <time>2013-08-01T15:11:31Z</time>
      </trkpt>
      <trkpt lat="48.7557" lon="2.07147">
        <ele>161.453</ele>
        <time>2013-08-01T15:11:34Z</time>
      </trkpt>
      <trkpt lat="48.75565" lon="2.07128">
        <ele>161.615</ele>
        <time>2013-08-01T15:11:37Z</time>
      </trkpt>
      <trkpt lat="48.75558" lon="2.07118">
        <ele>161.604</ele>
        <time>2013-08-01T15:11:41Z</time>
      </trkpt>
      <trkpt lat="48.75557" lon="2.07116">
        <ele>161.625</ele>
        <time>2013-08-01T15:11:42Z</time>
      </trkpt>
      <trkpt lat="48.75559" lon="2.07101">
        <ele>161.422</ele>
        <time>2013-08-01T15:11:47Z</time>
      </trkpt>
      <trkpt lat="48.75547" lon="2.07091">
        <ele>161.419</ele>
        <time>2013-08-01T15:11:51Z</time>
      </trkpt>
      <trkpt lat="48.75544" lon="2.07088">
        <ele>161.417</ele>
        <time>2013-08-01T15:11:52Z</time>
      </trkpt>
      <trkpt lat="48.75505" lon="2.07062">
        <ele>161.381</ele>
        <time>2013-08-01T15:12:01Z</time>
      </trkpt>
      <trkpt lat="48.75463" lon="2.07031">
        <ele>161.795</ele>
        <time>2013-08-01T15:12:10Z</time>
      </trkpt>
      <trkpt lat="48.75415" lon="2.06996">
        <ele>161.548</ele>
        <time>2013-08-01T15:12:20Z</time>
      </trkpt>
      <trkpt lat="48.75372" lon="2.06963">
        <ele>161.582</ele>
        <time>2013-08-01T15:12:29Z</time>
      </trkpt>
      <trkpt lat="48.75329" lon="2.06932">
        <ele>161.69</ele>
        <time>2013-08-01T15:12:38Z</time>
      </trkpt>
      <trkpt lat="48.75281" lon="2.06897">
        <ele>161.621</ele>
        <time>2013-08-01T15:12:48Z</time>
      </trkpt>
      <trkpt lat="48.75239" lon="2.06864">
        <ele>161.895</ele>
        <time>2013-08-01T15:12:57Z</time>
      </trkpt>
      <trkpt lat="48.75185" lon="2.06817">
        <ele>162.152</ele>
        <time>2013-08-01T15:13:09Z</time>
      </trkpt>
      <trkpt lat="48.7515" lon="2.06786">
        <ele>162.397</ele>
        <time>2013-08-01T15:13:17Z</time>
      </trkpt>
      <trkpt lat="48.75121" lon="2.06769">
        <ele>162.053</ele>
        <time>2013-08-01T15:13:23Z</time>
      </trkpt>
      <trkpt lat="48.75103" lon="2.06771">
        <ele>161.792</ele>
        <time>2013-08-01T15:13:27Z</time>
      </trkpt>
      <trkpt lat="48.75095" lon="2.06778">
        <ele>161.933</ele>
        <time>2013-08-01T15:13:29Z</time>
      </trkpt>
      <trkpt lat="48.75077" lon="2.06793">
        <ele>162.239</ele>
        <time>2013-08-01T15:13:34Z</time>
      </trkpt>
      <trkpt lat="48.75067" lon="2.06791">
        <ele>162.152</ele>
        <time>2013-08-01T15:13:38Z</time>
      </trkpt>
      <trkpt lat="48.75059" lon="2.06786">
        <ele>161.963</ele>
        <time>2013-08-01T15:13:41Z</time>
      </trkpt>
      <trkpt lat="48.75052" lon="2.0678">
        <ele>162.105</ele>
        <time>2013-08-01T15:13:43Z</time>
      </trkpt>
      <trkpt lat="48.75043" lon="2.06759">
        <ele>162.241</ele>
        <time>2013-08-01T15:13:47Z</time>
      </trkpt>
      <trkpt lat="48.75039" lon="2.06732">
        <ele>162.371</ele>
        <time>2013-08-01T15:13:51Z</time>
      </trkpt>
      <trkpt lat="48.75037" lon="2.06718">
        <ele>162.573</ele>
        <time>2013-08-01T15:13:53Z</time>
      </trkpt>
      <trkpt lat="48.75026" lon="2.06699">
        <ele>162.731</ele>
        <time>2013-08-01T15:13:57Z</time>
      </trkpt>
      <trkpt lat="48.75023" lon="2.0668">
        <ele>162.665</ele>
        <time>2013-08-01T15:14:01Z</time>
      </trkpt>
      <trkpt lat="48.75035" lon="2.06668">
        <ele>162.483</ele>
        <time>2013-08-01T15:14:05Z</time>
      </trkpt>
      <trkpt lat="48.75053" lon="2.06673">
        <ele>162.729</ele>
        <time>2013-08-01T15:14:10Z</time>
      </trkpt>
      <trkpt lat="48.75065" lon="2.06665">
        <ele>162.866</ele>
        <time>2013-08-01T15:14:13Z</time>
      </trkpt>
      <trkpt lat="48.75089" lon="2.06658">
        <ele>162.969</ele>
        <time>2013-08-01T15:14:18Z</time>
      </trkpt>
      <trkpt lat="48.75112" lon="2.06639">
        <ele>162.879</ele>
        <time>2013-08-01T15:14:23Z</time>
      </trkpt>
      <trkpt lat="48.7515" lon="2.06591">
        <ele>162.64</ele>
        <time>2013-08-01T15:14:32Z</time>
      </trkpt>
      <trkpt lat="48.75177" lon="2.06541">
        <ele>163.013</ele>
        <time>2013-08-01T15:14:40Z</time>
      </trkpt>
      <trkpt lat="48.75205" lon="2.06479">
        <ele>163.612</ele>
        <time>2013-08-01T15:14:49Z</time>
      </trkpt>
      <trkpt lat="48.75223" lon="2.06435">
        <ele>164.084</ele>
        <time>2013-08-01T15:14:55Z</time>
      </trkpt>
      <trkpt lat="48.75242" lon="2.06394">
        <ele>163.925</ele>
        <time>2013-08-01T15:15:01Z</time>
      </trkpt>
      <trkpt lat="48.75248" lon="2.06358">
        <ele>163.788</ele>
        <time>2013-08-01T15:15:06Z</time>
      </trkpt>
      <trkpt lat="48.75251" lon="2.06335">
        <ele>163.801</ele>
        <time>2013-08-01T15:15:09Z</time>
      </trkpt>
      <trkpt lat="48.75253" lon="2.06328">
        <ele>163.802</ele>
        <time>2013-08-01T15:15:10Z</time>
      </trkpt>
      <trkpt lat="48.7527" lon="2.0627">
        <ele>164.021</ele>
        <time>2013-08-01T15:15:18Z</time>
      </trkpt>
      <trkpt lat="48.75284" lon="2.06221">
        <ele>164.258</ele>
        <time>2013-08-01T15:15:26Z</time>
      </trkpt>
      <trkpt lat="48.75291" lon="2.06197">
        <ele>164.436</ele>
        <time>2013-08-01T15:15:30Z</time>
      </trkpt>
      <trkpt lat="48.75313" lon="2.06137">
        <ele>164.704</ele>
        <time>2013-08-01T15:15:39Z</time>
      </trkpt>
      <trkpt lat="48.75335" lon="2.06093">
        <ele>165.022</ele>
        <time>2013-08-01T15:15:46Z</time>
      </trkpt>
      <trkpt lat="48.75365" lon="2.06026">
        <ele>165.108</ele>
        <time>2013-08-01T15:15:56Z</time>
      </trkpt>
      <trkpt lat="48.7539" lon="2.05971">
        <ele>165.093</ele>
        <time>2013-08-01T15:16:04Z</time>
      </trkpt>
      <trkpt lat="48.75413" lon="2.05918">
        <ele>165.201</ele>
        <time>2013-08-01T15:16:12Z</time>
      </trkpt>
      <trkpt lat="48.7542" lon="2.05906">
        <ele>165.235</ele>
        <time>2013-08-01T15:16:14Z</time>
      </trkpt>
      <trkpt lat="48.75434" lon="2.05861">
        <ele>164.847</ele>
        <time>2013-08-01T15:16:20Z</time>
      </trkpt>
      <trkpt lat="48.75458" lon="2.0579">
        <ele>165</ele>
        <time>2013-08-01T15:16:29Z</time>
      </trkpt>
      <trkpt lat="48.75485" lon="2.0571">
        <ele>164.355</ele>
        <time>2013-08-01T15:16:39Z</time>
      </trkpt>
      <trkpt lat="48.75503" lon="2.05657">
        <ele>164.138</ele>
        <time>2013-08-01T15:16:46Z</time>
      </trkpt>
      <trkpt lat="48.7553" lon="2.05579">
        <ele>163.897</ele>
        <time>2013-08-01T15:16:56Z</time>
      </trkpt>
      <trkpt lat="48.75543" lon="2.0555">
        <ele>163.775</ele>
        <time>2013-08-01T15:17:00Z</time>
      </trkpt>
      <trkpt lat="48.75573" lon="2.05462">
        <ele>163.314</ele>
        <time>2013-08-01T15:17:11Z</time>
      </trkpt>
      <trkpt lat="48.75596" lon="2.054">
        <ele>163.17</ele>
        <time>2013-08-01T15:17:19Z</time>
      </trkpt>
      <trkpt lat="48.75604" lon="2.05377">
        <ele>163.236</ele>
        <time>2013-08-01T15:17:22Z</time>
      </trkpt>
      <trkpt lat="48.75609" lon="2.05361">
        <ele>163.219</ele>
        <time>2013-08-01T15:17:24Z</time>
      </trkpt>
      <trkpt lat="48.75607" lon="2.05339">
        <ele>163.38</ele>
        <time>2013-08-01T15:17:27Z</time>
      </trkpt>
      <trkpt lat="48.75597" lon="2.05337">
        <ele>163.416</ele>
        <time>2013-08-01T15:17:29Z</time>
      </trkpt>
      <trkpt lat="48.75556" lon="2.05331">
        <ele>163.159</ele>
        <time>2013-08-01T15:17:37Z</time>
      </trkpt>
      <trkpt lat="48.75538" lon="2.05312">
        <ele>162.961</ele>
        <time>2013-08-01T15:17:41Z</time>
      </trkpt>
      <trkpt lat="48.7552" lon="2.05302">
        <ele>162.985</ele>
        <time>2013-08-01T15:17:44Z</time>
      </trkpt>
      <trkpt lat="48.75473" lon="2.05291">
        <ele>163.153</ele>
        <time>2013-08-01T15:17:52Z</time>
      </trkpt>
      <trkpt lat="48.75468" lon="2.0529">
        <ele>163.141</ele>
        <time>2013-08-01T15:17:53Z</time>
      </trkpt>
      <trkpt lat="48.75452" lon="2.05272">
        <ele>162.951</ele>
        <time>2013-08-01T15:17:57Z</time>
      </trkpt>
      <trkpt lat="48.75451" lon="2.05264">
        <ele>162.927</ele>
        <time>2013-08-01T15:17:58Z</time>
      </trkpt>
      <trkpt lat="48.75459" lon="2.05187">
        <ele>162.809</ele>
        <time>2013-08-01T15:18:07Z</time>
      </trkpt>
      <trkpt lat="48.75462" lon="2.05162">
        <ele>162.853</ele>
        <time>2013-08-01T15:18:10Z</time>
      </trkpt>
      <trkpt lat="48.75466" lon="2.05129">
        <ele>163.361</ele>
        <time>2013-08-01T15:18:15Z</time>
      </trkpt>
      <trkpt lat="48.75457" lon="2.05127">
        <ele>163.385</ele>
        <time>2013-08-01T15:18:17Z</time>
      </trkpt>
      <trkpt lat="48.7542" lon="2.05127">
        <ele>163.27</ele>
        <time>2013-08-01T15:18:24Z</time>
      </trkpt>
      <trkpt lat="48.75378" lon="2.05122">
        <ele>162.806</ele>
        <time>2013-08-01T15:18:31Z</time>
      </trkpt>
      <trkpt lat="48.75324" lon="2.05114">
        <ele>161.957</ele>
        <time>2013-08-01T15:18:39Z</time>
      </trkpt>
      <trkpt lat="48.75256" lon="2.05092">
        <ele>161.071</ele>
        <time>2013-08-01T15:18:49Z</time>
      </trkpt>
      <trkpt lat="48.75208" lon="2.05075">
        <ele>160.8</ele>
        <time>2013-08-01T15:18:57Z</time>
      </trkpt>
      <trkpt lat="48.75204" lon="2.05073">
        <ele>160.779</ele>
        <time>2013-08-01T15:18:58Z</time>
      </trkpt>
      <trkpt lat="48.75189" lon="2.05068">
        <ele>160.419</ele>
        <time>2013-08-01T15:19:02Z</time>
      </trkpt>
      <trkpt lat="48.75184" lon="2.05051">
        <ele>159.473</ele>
        <time>2013-08-01T15:19:06Z</time>
      </trkpt>
      <trkpt lat="48.75179" lon="2.05035">
        <ele>158.844</ele>
        <time>2013-08-01T15:19:10Z</time>
      </trkpt>
      <trkpt lat="48.75173" lon="2.05022">
        <ele>158.54</ele>
        <time>2013-08-01T15:19:13Z</time>
      </trkpt>
      <trkpt lat="48.75163" lon="2.05007">
        <ele>158.266</ele>
        <time>2013-08-01T15:19:16Z</time>
      </trkpt>
      <trkpt lat="48.75151" lon="2.0498">
        <ele>158.029</ele>
        <time>2013-08-01T15:19:21Z</time>
      </trkpt>
      <trkpt lat="48.75139" lon="2.04945">
        <ele>157.572</ele>
        <time>2013-08-01T15:19:27Z</time>
      </trkpt>
      <trkpt lat="48.75125" lon="2.04906">
        <ele>157.225</ele>
        <time>2013-08-01T15:19:33Z</time>
      </trkpt>
      <trkpt lat="48.75119" lon="2.04893">
        <ele>157.19</ele>
        <time>2013-08-01T15:19:35Z</time>
      </trkpt>
      <trkpt lat="48.75108" lon="2.04866">
        <ele>157.099</ele>
        <time>2013-08-01T15:19:39Z</time>
      </trkpt>
      <trkpt lat="48.75091" lon="2.04823">
        <ele>156.396</ele>
        <time>2013-08-01T15:19:45Z</time>
      </trkpt>
      <trkpt lat="48.75083" lon="2.04814">
        <ele>156.39</ele>
        <time>2013-08-01T15:19:46Z</time>
      </trkpt>
      <trkpt lat="48.75072" lon="2.04784">
        <ele>155.816</ele>
        <time>2013-08-01T15:19:50Z</time>
      </trkpt>
      <trkpt lat="48.75045" lon="2.04733">
        <ele>154.382</ele>
        <time>2013-08-01T15:19:56Z</time>
      </trkpt>
      <trkpt lat="48.75034" lon="2.04715">
        <ele>153.869</ele>
        <time>2013-08-01T15:19:58Z</time>
      </trkpt>
      <trkpt lat="48.75023" lon="2.04689">
        <ele>153.66</ele>
        <time>2013-08-01T15:20:01Z</time>
      </trkpt>
      <trkpt lat="48.7501" lon="2.04652">
        <ele>154.409</ele>
        <time>2013-08-01T15:20:06Z</time>
      </trkpt>
      <trkpt lat="48.75009" lon="2.04646">
        <ele>154.617</ele>
        <time>2013-08-01T15:20:07Z</time>
      </trkpt>
      <trkpt lat="48.75004" lon="2.0461">
        <ele>154.996</ele>
        <time>2013-08-01T15:20:12Z</time>
      </trkpt>
      <trkpt lat="48.74994" lon="2.04567">
        <ele>154.661</ele>
        <time>2013-08-01T15:20:17Z</time>
      </trkpt>
      <trkpt lat="48.74992" lon="2.04556">
        <ele>154.541</ele>
        <time>2013-08-01T15:20:18Z</time>
      </trkpt>
      <trkpt lat="48.74983" lon="2.04495">
        <ele>152.982</ele>
        <time>2013-08-01T15:20:24Z</time>
      </trkpt>
      <trkpt lat="48.74976" lon="2.04442">
        <ele>151.7</ele>
        <time>2013-08-01T15:20:29Z</time>
      </trkpt>
      <trkpt lat="48.74973" lon="2.04422">
        <ele>151.332</ele>
        <time>2013-08-01T15:20:31Z</time>
      </trkpt>
      <trkpt lat="48.74967" lon="2.04376">
        <ele>151.197</ele>
        <time>2013-08-01T15:20:36Z</time>
      </trkpt>
      <trkpt lat="48.7497" lon="2.04348">
        <ele>151.483</ele>
        <time>2013-08-01T15:20:40Z</time>
      </trkpt>
      <trkpt lat="48.74975" lon="2.0434">
        <ele>151.763</ele>
        <time>2013-08-01T15:20:42Z</time>
      </trkpt>
      <trkpt lat="48.7498" lon="2.04326">
        <ele>152.739</ele>
        <time>2013-08-01T15:20:47Z</time>
      </trkpt>
      <trkpt lat="48.74988" lon="2.04321">
        <ele>153.343</ele>
        <time>2013-08-01T15:20:50Z</time>
      </trkpt>
      <trkpt lat="48.75002" lon="2.04306">
        <ele>153.925</ele>
        <time>2013-08-01T15:20:54Z</time>
      </trkpt>
      <trkpt lat="48.75012" lon="2.04284">
        <ele>154.212</ele>
        <time>2013-08-01T15:20:58Z</time>
      </trkpt>
      <trkpt lat="48.75021" lon="2.04248">
        <ele>153.819</ele>
        <time>2013-08-01T15:21:03Z</time>
      </trkpt>
      <trkpt lat="48.75035" lon="2.04221">
        <ele>152.88</ele>
        <time>2013-08-01T15:21:07Z</time>
      </trkpt>
      <trkpt lat="48.75039" lon="2.04216">
        <ele>152.68</ele>
        <time>2013-08-01T15:21:08Z</time>
      </trkpt>
      <trkpt lat="48.75064" lon="2.04191">
        <ele>152.18</ele>
        <time>2013-08-01T15:21:14Z</time>
      </trkpt>
      <trkpt lat="48.75077" lon="2.04175">
        <ele>153.148</ele>
        <time>2013-08-01T15:21:19Z</time>
      </trkpt>
      <trkpt lat="48.75087" lon="2.04169">
        <ele>154.361</ele>
        <time>2013-08-01T15:21:23Z</time>
      </trkpt>
      <trkpt lat="48.75107" lon="2.04166">
        <ele>155.175</ele>
        <time>2013-08-01T15:21:29Z</time>
      </trkpt>
      <trkpt lat="48.75113" lon="2.04165">
        <ele>155.557</ele>
        <time>2013-08-01T15:21:31Z</time>
      </trkpt>
      <trkpt lat="48.75121" lon="2.04163">
        <ele>155.758</ele>
        <time>2013-08-01T15:21:33Z</time>
      </trkpt>
      <trkpt lat="48.75131" lon="2.04158">
        <ele>156.06</ele>
        <time>2013-08-01T15:21:36Z</time>
      </trkpt>
      <trkpt lat="48.75148" lon="2.04145">
        <ele>156.406</ele>
        <time>2013-08-01T15:21:40Z</time>
      </trkpt>
      <trkpt lat="48.75163" lon="2.04129">
        <ele>156.488</ele>
        <time>2013-08-01T15:21:44Z</time>
      </trkpt>
      <trkpt lat="48.7517" lon="2.04121">
        <ele>156.579</ele>
        <time>2013-08-01T15:21:46Z</time>
      </trkpt>
      <trkpt lat="48.75178" lon="2.04106">
        <ele>156.511</ele>
        <time>2013-08-01T15:21:49Z</time>
      </trkpt>
      <trkpt lat="48.75198" lon="2.04098">
        <ele>156.625</ele>
        <time>2013-08-01T15:21:54Z</time>
      </trkpt>
      <trkpt lat="48.75216" lon="2.04103">
        <ele>156.825</ele>
        <time>2013-08-01T15:21:58Z</time>
      </trkpt>
      <trkpt lat="48.75221" lon="2.04105">
        <ele>156.769</ele>
        <time>2013-08-01T15:21:59Z</time>
      </trkpt>
      <trkpt lat="48.75248" lon="2.04116">
        <ele>156.949</ele>
        <time>2013-08-01T15:22:06Z</time>
      </trkpt>
      <trkpt lat="48.75256" lon="2.04117">
        <ele>157.089</ele>
        <time>2013-08-01T15:22:08Z</time>
      </trkpt>
      <trkpt lat="48.75275" lon="2.04114">
        <ele>157.01</ele>
        <time>2013-08-01T15:22:13Z</time>
      </trkpt>
      <trkpt lat="48.75294" lon="2.04111">
        <ele>156.845</ele>
        <time>2013-08-01T15:22:18Z</time>
      </trkpt>
      <trkpt lat="48.75297" lon="2.04109">
        <ele>156.933</ele>
        <time>2013-08-01T15:22:19Z</time>
      </trkpt>
      <trkpt lat="48.7532" lon="2.04096">
        <ele>157.446</ele>
        <time>2013-08-01T15:22:24Z</time>
      </trkpt>
      <trkpt lat="48.75333" lon="2.04085">
        <ele>157.652</ele>
        <time>2013-08-01T15:22:27Z</time>
      </trkpt>
      <trkpt lat="48.75352" lon="2.04077">
        <ele>157.963</ele>
        <time>2013-08-01T15:22:32Z</time>
      </trkpt>
      <trkpt lat="48.75376" lon="2.04083">
        <ele>158.758</ele>
        <time>2013-08-01T15:22:38Z</time>
      </trkpt>
      <trkpt lat="48.75401" lon="2.04091">
        <ele>159.303</ele>
        <time>2013-08-01T15:22:46Z</time>
      </trkpt>
      <trkpt lat="48.75412" lon="2.04096">
        <ele>159.614</ele>
        <time>2013-08-01T15:22:52Z</time>
      </trkpt>
      <trkpt lat="48.75424" lon="2.04088">
        <ele>159.898</ele>
        <time>2013-08-01T15:22:57Z</time>
      </trkpt>
      <trkpt lat="48.75431" lon="2.04076">
        <ele>159.835</ele>
        <time>2013-08-01T15:23:00Z</time>
      </trkpt>
      <trkpt lat="48.75451" lon="2.04059">
        <ele>159.924</ele>
        <time>2013-08-01T15:23:05Z</time>
      </trkpt>
      <trkpt lat="48.75464" lon="2.04037">
        <ele>159.88</ele>
        <time>2013-08-01T15:23:10Z</time>
      </trkpt>
      <trkpt lat="48.75477" lon="2.04013">
        <ele>159.7</ele>
        <time>2013-08-01T15:23:15Z</time>
      </trkpt>
      <trkpt lat="48.75485" lon="2.04">
        <ele>159.886</ele>
        <time>2013-08-01T15:23:18Z</time>
      </trkpt>
      <trkpt lat="48.75507" lon="2.03964">
        <ele>160.431</ele>
        <time>2013-08-01T15:23:25Z</time>
      </trkpt>
      <trkpt lat="48.75511" lon="2.03937">
        <ele>160.701</ele>
        <time>2013-08-01T15:23:29Z</time>
      </trkpt>
      <trkpt lat="48.75516" lon="2.03899">
        <ele>160.725</ele>
        <time>2013-08-01T15:23:34Z</time>
      </trkpt>
      <trkpt lat="48.7553" lon="2.03849">
        <ele>160.496</ele>
        <time>2013-08-01T15:23:41Z</time>
      </trkpt>
      <trkpt lat="48.75541" lon="2.03816">
        <ele>160.355</ele>
        <time>2013-08-01T15:23:46Z</time>
      </trkpt>
      <trkpt lat="48.75548" lon="2.03789">
        <ele>160.303</ele>
        <time>2013-08-01T15:23:50Z</time>
      </trkpt>
      <trkpt lat="48.75552" lon="2.03775">
        <ele>160.255</ele>
        <time>2013-08-01T15:23:52Z</time>
      </trkpt>
      <trkpt lat="48.75558" lon="2.03749">
        <ele>160.359</ele>
        <time>2013-08-01T15:23:56Z</time>
      </trkpt>
      <trkpt lat="48.75564" lon="2.03716">
        <ele>160.47</ele>
        <time>2013-08-01T15:24:01Z</time>
      </trkpt>
      <trkpt lat="48.75571" lon="2.03684">
        <ele>160.936</ele>
        <time>2013-08-01T15:24:06Z</time>
      </trkpt>
      <trkpt lat="48.75574" lon="2.03656">
        <ele>161.111</ele>
        <time>2013-08-01T15:24:10Z</time>
      </trkpt>
      <trkpt lat="48.75575" lon="2.03641">
        <ele>160.928</ele>
        <time>2013-08-01T15:24:12Z</time>
      </trkpt>
      <trkpt lat="48.7558" lon="2.03606">
        <ele>160.218</ele>
        <time>2013-08-01T15:24:17Z</time>
      </trkpt>
      <trkpt lat="48.75585" lon="2.03585">
        <ele>160.136</ele>
        <time>2013-08-01T15:24:20Z</time>
      </trkpt>
      <trkpt lat="48.75591" lon="2.0355">
        <ele>160.386</ele>
        <time>2013-08-01T15:24:25Z</time>
      </trkpt>
      <trkpt lat="48.75599" lon="2.03515">
        <ele>160.784</ele>
        <time>2013-08-01T15:24:30Z</time>
      </trkpt>
      <trkpt lat="48.75606" lon="2.03464">
        <ele>161.291</ele>
        <time>2013-08-01T15:24:37Z</time>
      </trkpt>
      <trkpt lat="48.75612" lon="2.03444">
        <ele>161.471</ele>
        <time>2013-08-01T15:24:40Z</time>
      </trkpt>
      <trkpt lat="48.75618" lon="2.03414">
        <ele>161.398</ele>
        <time>2013-08-01T15:24:44Z</time>
      </trkpt>
      <trkpt lat="48.75621" lon="2.03396">
        <ele>161.148</ele>
        <time>2013-08-01T15:24:47Z</time>
      </trkpt>
      <trkpt lat="48.75626" lon="2.03376">
        <ele>161.083</ele>
        <time>2013-08-01T15:24:50Z</time>
      </trkpt>
      <trkpt lat="48.75628" lon="2.03333">
        <ele>160.57</ele>
        <time>2013-08-01T15:24:56Z</time>
      </trkpt>
      <trkpt lat="48.7563" lon="2.03283">
        <ele>159.406</ele>
        <time>2013-08-01T15:25:02Z</time>
      </trkpt>
      <trkpt lat="48.75629" lon="2.03266">
        <ele>159.107</ele>
        <time>2013-08-01T15:25:04Z</time>
      </trkpt>
      <trkpt lat="48.75637" lon="2.0322">
        <ele>158.017</ele>
        <time>2013-08-01T15:25:09Z</time>
      </trkpt>
      <trkpt lat="48.75637" lon="2.03211">
        <ele>157.791</ele>
        <time>2013-08-01T15:25:10Z</time>
      </trkpt>
      <trkpt lat="48.75637" lon="2.03184">
        <ele>157.32</ele>
        <time>2013-08-01T15:25:13Z</time>
      </trkpt>
      <trkpt lat="48.75629" lon="2.03126">
        <ele>155.535</ele>
        <time>2013-08-01T15:25:18Z</time>
      </trkpt>
      <trkpt lat="48.75631" lon="2.03076">
        <ele>153.678</ele>
        <time>2013-08-01T15:25:22Z</time>
      </trkpt>
      <trkpt lat="48.75645" lon="2.03044">
        <ele>152.967</ele>
        <time>2013-08-01T15:25:26Z</time>
      </trkpt>
      <trkpt lat="48.75654" lon="2.03036">
        <ele>153.172</ele>
        <time>2013-08-01T15:25:28Z</time>
      </trkpt>
      <trkpt lat="48.75665" lon="2.03021">
        <ele>154.107</ele>
        <time>2013-08-01T15:25:31Z</time>
      </trkpt>
      <trkpt lat="48.75671" lon="2.0299">
        <ele>154.86</ele>
        <time>2013-08-01T15:25:36Z</time>
      </trkpt>
      <trkpt lat="48.75662" lon="2.02956">
        <ele>154.569</ele>
        <time>2013-08-01T15:25:40Z</time>
      </trkpt>
      <trkpt lat="48.75658" lon="2.0294">
        <ele>154.169</ele>
        <time>2013-08-01T15:25:42Z</time>
      </trkpt>
      <trkpt lat="48.7565" lon="2.02888">
        <ele>152.886</ele>
        <time>2013-08-01T15:25:48Z</time>
      </trkpt>
      <trkpt lat="48.75649" lon="2.02874">
        <ele>152.654</ele>
        <time>2013-08-01T15:25:50Z</time>
      </trkpt>
      <trkpt lat="48.75647" lon="2.02855">
        <ele>152.76</ele>
        <time>2013-08-01T15:25:53Z</time>
      </trkpt>
      <trkpt lat="48.75646" lon="2.0283">
        <ele>153.193</ele>
        <time>2013-08-01T15:25:57Z</time>
      </trkpt>
      <trkpt lat="48.75647" lon="2.02818">
        <ele>153.41</ele>
        <time>2013-08-01T15:25:59Z</time>
      </trkpt>
      <trkpt lat="48.75652" lon="2.0278">
        <ele>154.126</ele>
        <time>2013-08-01T15:26:05Z</time>
      </trkpt>
      <trkpt lat="48.75654" lon="2.02775">
        <ele>154.189</ele>
        <time>2013-08-01T15:26:06Z</time>
      </trkpt>
      <trkpt lat="48.75672" lon="2.0274">
        <ele>154.906</ele>
        <time>2013-08-01T15:26:13Z</time>
      </trkpt>
      <trkpt lat="48.75674" lon="2.02734">
        <ele>155.001</ele>
        <time>2013-08-01T15:26:14Z</time>
      </trkpt>
      <trkpt lat="48.75689" lon="2.02706">
        <ele>155.237</ele>
        <time>2013-08-01T15:26:20Z</time>
      </trkpt>
      <trkpt lat="48.75693" lon="2.02676">
        <ele>155.673</ele>
        <time>2013-08-01T15:26:25Z</time>
      </trkpt>
      <trkpt lat="48.75696" lon="2.02668">
        <ele>155.835</ele>
        <time>2013-08-01T15:26:27Z</time>
      </trkpt>
      <trkpt lat="48.75711" lon="2.02645">
        <ele>156.645</ele>
        <time>2013-08-01T15:26:34Z</time>
      </trkpt>
      <trkpt lat="48.75712" lon="2.02641">
        <ele>156.757</ele>
        <time>2013-08-01T15:26:35Z</time>
      </trkpt>
      <trkpt lat="48.75728" lon="2.02622">
        <ele>157.262</ele>
        <time>2013-08-01T15:26:40Z</time>
      </trkpt>
      <trkpt lat="48.75731" lon="2.02618">
        <ele>157.34</ele>
        <time>2013-08-01T15:26:41Z</time>
      </trkpt>
      <trkpt lat="48.7574" lon="2.02604">
        <ele>157.644</ele>
        <time>2013-08-01T15:26:44Z</time>
      </trkpt>
      <trkpt lat="48.75747" lon="2.0258">
        <ele>157.996</ele>
        <time>2013-08-01T15:26:48Z</time>
      </trkpt>
      <trkpt lat="48.75759" lon="2.0255">
        <ele>158.198</ele>
        <time>2013-08-01T15:26:54Z</time>
      </trkpt>
      <trkpt lat="48.75775" lon="2.02536">
        <ele>158.195</ele>
        <time>2013-08-01T15:26:57Z</time>
      </trkpt>
      <trkpt lat="48.75793" lon="2.02511">
        <ele>158.321</ele>
        <time>2013-08-01T15:27:02Z</time>
      </trkpt>
      <trkpt lat="48.75812" lon="2.02478">
        <ele>158.443</ele>
        <time>2013-08-01T15:27:08Z</time>
      </trkpt>
      <trkpt lat="48.75814" lon="2.02472">
        <ele>158.425</ele>
        <time>2013-08-01T15:27:09Z</time>
      </trkpt>
      <trkpt lat="48.75833" lon="2.02438">
        <ele>158.321</ele>
        <time>2013-08-01T15:27:15Z</time>
      </trkpt>
      <trkpt lat="48.75845" lon="2.02417">
        <ele>158.188</ele>
        <time>2013-08-01T15:27:19Z</time>
      </trkpt>
      <trkpt lat="48.7585" lon="2.02406">
        <ele>158.159</ele>
        <time>2013-08-01T15:27:21Z</time>
      </trkpt>
      <trkpt lat="48.75862" lon="2.02386">
        <ele>158.269</ele>
        <time>2013-08-01T15:27:25Z</time>
      </trkpt>
      <trkpt lat="48.75888" lon="2.0238">
        <ele>158.561</ele>
        <time>2013-08-01T15:27:30Z</time>
      </trkpt>
      <trkpt lat="48.75905" lon="2.02369">
        <ele>159.048</ele>
        <time>2013-08-01T15:27:36Z</time>
      </trkpt>
      <trkpt lat="48.75917" lon="2.0236">
        <ele>159.643</ele>
        <time>2013-08-01T15:27:41Z</time>
      </trkpt>
      <trkpt lat="48.75919" lon="2.02358">
        <ele>159.756</ele>
        <time>2013-08-01T15:27:42Z</time>
      </trkpt>
      <trkpt lat="48.7595" lon="2.02341">
        <ele>160.613</ele>
        <time>2013-08-01T15:27:50Z</time>
      </trkpt>
      <trkpt lat="48.75966" lon="2.02333">
        <ele>161.265</ele>
        <time>2013-08-01T15:27:55Z</time>
      </trkpt>
      <trkpt lat="48.75981" lon="2.02312">
        <ele>162.254</ele>
        <time>2013-08-01T15:28:00Z</time>
      </trkpt>
      <trkpt lat="48.75999" lon="2.02278">
        <ele>162.497</ele>
        <time>2013-08-01T15:28:06Z</time>
      </trkpt>
      <trkpt lat="48.76009" lon="2.02237">
        <ele>162.437</ele>
        <time>2013-08-01T15:28:13Z</time>
      </trkpt>
      <trkpt lat="48.76017" lon="2.02219">
        <ele>162.482</ele>
        <time>2013-08-01T15:28:16Z</time>
      </trkpt>
      <trkpt lat="48.7602" lon="2.02207">
        <ele>162.549</ele>
        <time>2013-08-01T15:28:18Z</time>
      </trkpt>
      <trkpt lat="48.76024" lon="2.02188">
        <ele>162.766</ele>
        <time>2013-08-01T15:28:21Z</time>
      </trkpt>
      <trkpt lat="48.76037" lon="2.0213">
        <ele>162.679</ele>
        <time>2013-08-01T15:28:30Z</time>
      </trkpt>
      <trkpt lat="48.76044" lon="2.02102">
        <ele>162.671</ele>
        <time>2013-08-01T15:28:35Z</time>
      </trkpt>
      <trkpt lat="48.76045" lon="2.02096">
        <ele>162.736</ele>
        <time>2013-08-01T15:28:36Z</time>
      </trkpt>
      <trkpt lat="48.76041" lon="2.02058">
        <ele>163.006</ele>
        <time>2013-08-01T15:28:42Z</time>
      </trkpt>
      <trkpt lat="48.76031" lon="2.02033">
        <ele>162.639</ele>
        <time>2013-08-01T15:28:46Z</time>
      </trkpt>
      <trkpt lat="48.7602" lon="2.02007">
        <ele>161.849</ele>
        <time>2013-08-01T15:28:50Z</time>
      </trkpt>
      <trkpt lat="48.76005" lon="2.01961">
        <ele>161.062</ele>
        <time>2013-08-01T15:28:57Z</time>
      </trkpt>
      <trkpt lat="48.75988" lon="2.01914">
        <ele>160.197</ele>
        <time>2013-08-01T15:29:03Z</time>
      </trkpt>
      <trkpt lat="48.7597" lon="2.01875">
        <ele>159.183</ele>
        <time>2013-08-01T15:29:08Z</time>
      </trkpt>
      <trkpt lat="48.75958" lon="2.0185">
        <ele>158.798</ele>
        <time>2013-08-01T15:29:11Z</time>
      </trkpt>
      <trkpt lat="48.75949" lon="2.01817">
        <ele>158.596</ele>
        <time>2013-08-01T15:29:16Z</time>
      </trkpt>
      <trkpt lat="48.75939" lon="2.01791">
        <ele>158.709</ele>
        <time>2013-08-01T15:29:20Z</time>
      </trkpt>
      <trkpt lat="48.75927" lon="2.01757">
        <ele>159.222</ele>
        <time>2013-08-01T15:29:26Z</time>
      </trkpt>
      <trkpt lat="48.75918" lon="2.01739">
        <ele>159.635</ele>
        <time>2013-08-01T15:29:29Z</time>
      </trkpt>
      <trkpt lat="48.75906" lon="2.01707">
        <ele>160.098</ele>
        <time>2013-08-01T15:29:35Z</time>
      </trkpt>
      <trkpt lat="48.759" lon="2.01687">
        <ele>160.371</ele>
        <time>2013-08-01T15:29:39Z</time>
      </trkpt>
      <trkpt lat="48.75898" lon="2.01677">
        <ele>160.523</ele>
        <time>2013-08-01T15:29:41Z</time>
      </trkpt>
      <trkpt lat="48.75893" lon="2.01655">
        <ele>160.901</ele>
        <time>2013-08-01T15:29:45Z</time>
      </trkpt>
      <trkpt lat="48.75887" lon="2.01634">
        <ele>161.433</ele>
        <time>2013-08-01T15:29:49Z</time>
      </trkpt>
      <trkpt lat="48.75882" lon="2.01624">
        <ele>161.585</ele>
        <time>2013-08-01T15:29:51Z</time>
      </trkpt>
      <trkpt lat="48.75874" lon="2.016">
        <ele>162.07</ele>
        <time>2013-08-01T15:29:55Z</time>
      </trkpt>
      <trkpt lat="48.75857" lon="2.01568">
        <ele>162.366</ele>
        <time>2013-08-01T15:30:00Z</time>
      </trkpt>
      <trkpt lat="48.7584" lon="2.01531">
        <ele>162.998</ele>
        <time>2013-08-01T15:30:07Z</time>
      </trkpt>
      <trkpt lat="48.75832" lon="2.01503">
        <ele>163.226</ele>
        <time>2013-08-01T15:30:13Z</time>
      </trkpt>
      <trkpt lat="48.75825" lon="2.01478">
        <ele>163.497</ele>
        <time>2013-08-01T15:30:18Z</time>
      </trkpt>
      <trkpt lat="48.75819" lon="2.01462">
        <ele>163.702</ele>
        <time>2013-08-01T15:30:21Z</time>
      </trkpt>
      <trkpt lat="48.75813" lon="2.01438">
        <ele>163.917</ele>
        <time>2013-08-01T15:30:26Z</time>
      </trkpt>
      <trkpt lat="48.75805" lon="2.014">
        <ele>164.485</ele>
        <time>2013-08-01T15:30:34Z</time>
      </trkpt>
      <trkpt lat="48.75804" lon="2.01385">
        <ele>164.685</ele>
        <time>2013-08-01T15:30:37Z</time>
      </trkpt>
      <trkpt lat="48.75799" lon="2.01358">
        <ele>164.94</ele>
        <time>2013-08-01T15:30:42Z</time>
      </trkpt>
      <trkpt lat="48.7579" lon="2.01327">
        <ele>165.152</ele>
        <time>2013-08-01T15:30:47Z</time>
      </trkpt>
      <trkpt lat="48.75787" lon="2.01301">
        <ele>164.912</ele>
        <time>2013-08-01T15:30:52Z</time>
      </trkpt>
      <trkpt lat="48.75779" lon="2.01276">
        <ele>164.74</ele>
        <time>2013-08-01T15:30:57Z</time>
      </trkpt>
      <trkpt lat="48.75775" lon="2.01258">
        <ele>164.877</ele>
        <time>2013-08-01T15:31:01Z</time>
      </trkpt>
      <trkpt lat="48.75766" lon="2.01229">
        <ele>165.106</ele>
        <time>2013-08-01T15:31:07Z</time>
      </trkpt>
      <trkpt lat="48.75765" lon="2.01224">
        <ele>165.178</ele>
        <time>2013-08-01T15:31:08Z</time>
      </trkpt>
      <trkpt lat="48.75757" lon="2.01189">
        <ele>165.235</ele>
        <time>2013-08-01T15:31:14Z</time>
      </trkpt>
      <trkpt lat="48.75751" lon="2.01166">
        <ele>165.151</ele>
        <time>2013-08-01T15:31:18Z</time>
      </trkpt>
      <trkpt lat="48.75741" lon="2.01148">
        <ele>165.283</ele>
        <time>2013-08-01T15:31:21Z</time>
      </trkpt>
      <trkpt lat="48.75721" lon="2.0112">
        <ele>165.421</ele>
        <time>2013-08-01T15:31:25Z</time>
      </trkpt>
      <trkpt lat="48.7571" lon="2.01088">
        <ele>165.246</ele>
        <time>2013-08-01T15:31:30Z</time>
      </trkpt>
      <trkpt lat="48.75708" lon="2.01081">
        <ele>165.233</ele>
        <time>2013-08-01T15:31:31Z</time>
      </trkpt>
      <trkpt lat="48.75689" lon="2.01041">
        <ele>164.519</ele>
        <time>2013-08-01T15:31:37Z</time>
      </trkpt>
      <trkpt lat="48.75683" lon="2.01032">
        <ele>164.434</ele>
        <time>2013-08-01T15:31:38Z</time>
      </trkpt>
      <trkpt lat="48.7565" lon="2.00978">
        <ele>164.266</ele>
        <time>2013-08-01T15:31:45Z</time>
      </trkpt>
      <trkpt lat="48.75626" lon="2.00946">
        <ele>164.052</ele>
        <time>2013-08-01T15:31:49Z</time>
      </trkpt>
      <trkpt lat="48.75611" lon="2.00908">
        <ele>164.008</ele>
        <time>2013-08-01T15:31:55Z</time>
      </trkpt>
      <trkpt lat="48.7561" lon="2.00903">
        <ele>164.012</ele>
        <time>2013-08-01T15:31:56Z</time>
      </trkpt>
      <trkpt lat="48.75609" lon="2.00892">
        <ele>164.077</ele>
        <time>2013-08-01T15:31:58Z</time>
      </trkpt>
      <trkpt lat="48.75605" lon="2.0088">
        <ele>164.17</ele>
        <time>2013-08-01T15:32:00Z</time>
      </trkpt>
      <trkpt lat="48.75598" lon="2.00862">
        <ele>164.165</ele>
        <time>2013-08-01T15:32:03Z</time>
      </trkpt>
      <trkpt lat="48.75595" lon="2.00844">
        <ele>164.263</ele>
        <time>2013-08-01T15:32:06Z</time>
      </trkpt>
      <trkpt lat="48.75584" lon="2.00813">
        <ele>164.483</ele>
        <time>2013-08-01T15:32:11Z</time>
      </trkpt>
      <trkpt lat="48.75577" lon="2.00793">
        <ele>164.487</ele>
        <time>2013-08-01T15:32:14Z</time>
      </trkpt>
      <trkpt lat="48.75577" lon="2.00782">
        <ele>164.446</ele>
        <time>2013-08-01T15:32:16Z</time>
      </trkpt>
      <trkpt lat="48.7557" lon="2.00756">
        <ele>164.548</ele>
        <time>2013-08-01T15:32:21Z</time>
      </trkpt>
      <trkpt lat="48.75559" lon="2.00727">
        <ele>164.693</ele>
        <time>2013-08-01T15:32:26Z</time>
      </trkpt>
      <trkpt lat="48.75551" lon="2.00703">
        <ele>164.795</ele>
        <time>2013-08-01T15:32:30Z</time>
      </trkpt>
      <trkpt lat="48.7554" lon="2.00679">
        <ele>164.818</ele>
        <time>2013-08-01T15:32:34Z</time>
      </trkpt>
      <trkpt lat="48.75528" lon="2.00652">
        <ele>164.773</ele>
        <time>2013-08-01T15:32:38Z</time>
      </trkpt>
      <trkpt lat="48.75512" lon="2.00615">
        <ele>164.977</ele>
        <time>2013-08-01T15:32:44Z</time>
      </trkpt>
      <trkpt lat="48.75505" lon="2.00591">
        <ele>165.055</ele>
        <time>2013-08-01T15:32:48Z</time>
      </trkpt>
      <trkpt lat="48.75497" lon="2.00561">
        <ele>165.413</ele>
        <time>2013-08-01T15:32:53Z</time>
      </trkpt>
      <trkpt lat="48.75495" lon="2.00556">
        <ele>165.456</ele>
        <time>2013-08-01T15:32:54Z</time>
      </trkpt>
      <trkpt lat="48.75489" lon="2.00539">
        <ele>165.641</ele>
        <time>2013-08-01T15:32:57Z</time>
      </trkpt>
      <trkpt lat="48.75487" lon="2.00528">
        <ele>165.694</ele>
        <time>2013-08-01T15:32:59Z</time>
      </trkpt>
      <trkpt lat="48.75485" lon="2.00518">
        <ele>165.711</ele>
        <time>2013-08-01T15:33:01Z</time>
      </trkpt>
      <trkpt lat="48.7548" lon="2.00494">
        <ele>165.626</ele>
        <time>2013-08-01T15:33:05Z</time>
      </trkpt>
      <trkpt lat="48.75476" lon="2.00472">
        <ele>165.755</ele>
        <time>2013-08-01T15:33:09Z</time>
      </trkpt>
      <trkpt lat="48.75471" lon="2.00449">
        <ele>165.879</ele>
        <time>2013-08-01T15:33:13Z</time>
      </trkpt>
      <trkpt lat="48.75462" lon="2.00425">
        <ele>166.028</ele>
        <time>2013-08-01T15:33:17Z</time>
      </trkpt>
      <trkpt lat="48.75457" lon="2.00413">
        <ele>166.021</ele>
        <time>2013-08-01T15:33:19Z</time>
      </trkpt>
      <trkpt lat="48.75438" lon="2.00381">
        <ele>166.219</ele>
        <time>2013-08-01T15:33:25Z</time>
      </trkpt>
      <trkpt lat="48.75426" lon="2.00358">
        <ele>166.444</ele>
        <time>2013-08-01T15:33:30Z</time>
      </trkpt>
      <trkpt lat="48.75425" lon="2.00341">
        <ele>166.595</ele>
        <time>2013-08-01T15:33:35Z</time>
      </trkpt>
      <trkpt lat="48.75413" lon="2.0034">
        <ele>166.579</ele>
        <time>2013-08-01T15:33:40Z</time>
      </trkpt>
      <trkpt lat="48.75406" lon="2.00343">
        <ele>166.686</ele>
        <time>2013-08-01T15:33:42Z</time>
      </trkpt>
      <trkpt lat="48.75398" lon="2.00345">
        <ele>166.696</ele>
        <time>2013-08-01T15:33:44Z</time>
      </trkpt>
      <trkpt lat="48.75387" lon="2.00355">
        <ele>166.57</ele>
        <time>2013-08-01T15:33:49Z</time>
      </trkpt>
      <trkpt lat="48.75365" lon="2.00372">
        <ele>166.392</ele>
        <time>2013-08-01T15:33:56Z</time>
      </trkpt>
      <trkpt lat="48.75347" lon="2.00388">
        <ele>166.749</ele>
        <time>2013-08-01T15:34:01Z</time>
      </trkpt>
      <trkpt lat="48.75314" lon="2.0041">
        <ele>166.75</ele>
        <time>2013-08-01T15:34:08Z</time>
      </trkpt>
      <trkpt lat="48.75289" lon="2.00437">
        <ele>166.996</ele>
        <time>2013-08-01T15:34:15Z</time>
      </trkpt>
      <trkpt lat="48.75266" lon="2.00465">
        <ele>167.323</ele>
        <time>2013-08-01T15:34:22Z</time>
      </trkpt>
      <trkpt lat="48.7523" lon="2.00506">
        <ele>167.635</ele>
        <time>2013-08-01T15:34:33Z</time>
      </trkpt>
      <trkpt lat="48.752" lon="2.00541">
        <ele>168.185</ele>
        <time>2013-08-01T15:34:42Z</time>
      </trkpt>
      <trkpt lat="48.75174" lon="2.00573">
        <ele>168.366</ele>
        <time>2013-08-01T15:34:50Z</time>
      </trkpt>
      <trkpt lat="48.75167" lon="2.00585">
        <ele>168.443</ele>
        <time>2013-08-01T15:34:53Z</time>
      </trkpt>
      <trkpt lat="48.75146" lon="2.00615">
        <ele>168.508</ele>
        <time>2013-08-01T15:35:00Z</time>
      </trkpt>
      <trkpt lat="48.75121" lon="2.00642">
        <ele>168.683</ele>
        <time>2013-08-01T15:35:07Z</time>
      </trkpt>
      <trkpt lat="48.75104" lon="2.00656">
        <ele>168.879</ele>
        <time>2013-08-01T15:35:12Z</time>
      </trkpt>
      <trkpt lat="48.75097" lon="2.00664">
        <ele>168.871</ele>
        <time>2013-08-01T15:35:14Z</time>
      </trkpt>
      <trkpt lat="48.7507" lon="2.00699">
        <ele>168.886</ele>
        <time>2013-08-01T15:35:22Z</time>
      </trkpt>
      <trkpt lat="48.75042" lon="2.00731">
        <ele>169.171</ele>
        <time>2013-08-01T15:35:30Z</time>
      </trkpt>
      <trkpt lat="48.75018" lon="2.0076">
        <ele>169.629</ele>
        <time>2013-08-01T15:35:37Z</time>
      </trkpt>
      <trkpt lat="48.74994" lon="2.00803">
        <ele>169.698</ele>
        <time>2013-08-01T15:35:45Z</time>
      </trkpt>
      <trkpt lat="48.74973" lon="2.00849">
        <ele>169.878</ele>
        <time>2013-08-01T15:35:53Z</time>
      </trkpt>
      <trkpt lat="48.74966" lon="2.00876">
        <ele>169.898</ele>
        <time>2013-08-01T15:35:58Z</time>
      </trkpt>
      <trkpt lat="48.74954" lon="2.0091">
        <ele>169.918</ele>
        <time>2013-08-01T15:36:04Z</time>
      </trkpt>
      <trkpt lat="48.74946" lon="2.00955">
        <ele>169.956</ele>
        <time>2013-08-01T15:36:11Z</time>
      </trkpt>
      <trkpt lat="48.7494" lon="2.00982">
        <ele>170.018</ele>
        <time>2013-08-01T15:36:15Z</time>
      </trkpt>
      <trkpt lat="48.74939" lon="2.01003">
        <ele>169.883</ele>
        <time>2013-08-01T15:36:18Z</time>
      </trkpt>
      <trkpt lat="48.7492" lon="2.01063">
        <ele>169.696</ele>
        <time>2013-08-01T15:36:27Z</time>
      </trkpt>
      <trkpt lat="48.74917" lon="2.01089">
        <ele>169.72</ele>
        <time>2013-08-01T15:36:31Z</time>
      </trkpt>
      <trkpt lat="48.74917" lon="2.0111">
        <ele>169.687</ele>
        <time>2013-08-01T15:36:34Z</time>
      </trkpt>
      <trkpt lat="48.74905" lon="2.01149">
        <ele>169.646</ele>
        <time>2013-08-01T15:36:40Z</time>
      </trkpt>
      <trkpt lat="48.74885" lon="2.01212">
        <ele>169.404</ele>
        <time>2013-08-01T15:36:49Z</time>
      </trkpt>
      <trkpt lat="48.74871" lon="2.01272">
        <ele>169.235</ele>
        <time>2013-08-01T15:36:58Z</time>
      </trkpt>
      <trkpt lat="48.74862" lon="2.01323">
        <ele>168.886</ele>
        <time>2013-08-01T15:37:06Z</time>
      </trkpt>
      <trkpt lat="48.74854" lon="2.01367">
        <ele>168.697</ele>
        <time>2013-08-01T15:37:13Z</time>
      </trkpt>
      <trkpt lat="48.74849" lon="2.01425">
        <ele>168.492</ele>
        <time>2013-08-01T15:37:21Z</time>
      </trkpt>
      <trkpt lat="48.74851" lon="2.01479">
        <ele>168.412</ele>
        <time>2013-08-01T15:37:28Z</time>
      </trkpt>
      <trkpt lat="48.74855" lon="2.01514">
        <ele>168.277</ele>
        <time>2013-08-01T15:37:33Z</time>
      </trkpt>
      <trkpt lat="48.74854" lon="2.01543">
        <ele>168.207</ele>
        <time>2013-08-01T15:37:37Z</time>
      </trkpt>
      <trkpt lat="48.74848" lon="2.01578">
        <ele>168.313</ele>
        <time>2013-08-01T15:37:42Z</time>
      </trkpt>
      <trkpt lat="48.74844" lon="2.01623">
        <ele>168.029</ele>
        <time>2013-08-01T15:37:49Z</time>
      </trkpt>
      <trkpt lat="48.74843" lon="2.01629">
        <ele>167.887</ele>
        <time>2013-08-01T15:37:50Z</time>
      </trkpt>
      <trkpt lat="48.7483" lon="2.01656">
        <ele>167.571</ele>
        <time>2013-08-01T15:37:56Z</time>
      </trkpt>
      <trkpt lat="48.74816" lon="2.01674">
        <ele>167.685</ele>
        <time>2013-08-01T15:38:01Z</time>
      </trkpt>
      <trkpt lat="48.74814" lon="2.0168">
        <ele>167.7</ele>
        <time>2013-08-01T15:38:02Z</time>
      </trkpt>
      <trkpt lat="48.74801" lon="2.01741">
        <ele>167.127</ele>
        <time>2013-08-01T15:38:11Z</time>
      </trkpt>
      <trkpt lat="48.74783" lon="2.01792">
        <ele>166.575</ele>
        <time>2013-08-01T15:38:19Z</time>
      </trkpt>
      <trkpt lat="48.74769" lon="2.01833">
        <ele>166.462</ele>
        <time>2013-08-01T15:38:25Z</time>
      </trkpt>
      <trkpt lat="48.74757" lon="2.01878">
        <ele>166.227</ele>
        <time>2013-08-01T15:38:32Z</time>
      </trkpt>
      <trkpt lat="48.74745" lon="2.01918">
        <ele>165.985</ele>
        <time>2013-08-01T15:38:38Z</time>
      </trkpt>
      <trkpt lat="48.74743" lon="2.01923">
        <ele>165.898</ele>
        <time>2013-08-01T15:38:39Z</time>
      </trkpt>
      <trkpt lat="48.7473" lon="2.01959">
        <ele>165.342</ele>
        <time>2013-08-01T15:38:45Z</time>
      </trkpt>
      <trkpt lat="48.74725" lon="2.01974">
        <ele>165.289</ele>
        <time>2013-08-01T15:38:47Z</time>
      </trkpt>
      <trkpt lat="48.74711" lon="2.02014">
        <ele>165.03</ele>
        <time>2013-08-01T15:38:52Z</time>
      </trkpt>
      <trkpt lat="48.74705" lon="2.02038">
        <ele>164.777</ele>
        <time>2013-08-01T15:38:55Z</time>
      </trkpt>
      <trkpt lat="48.74701" lon="2.02054">
        <ele>164.702</ele>
        <time>2013-08-01T15:38:57Z</time>
      </trkpt>
      <trkpt lat="48.74691" lon="2.02093">
        <ele>164.576</ele>
        <time>2013-08-01T15:39:02Z</time>
      </trkpt>
      <trkpt lat="48.74687" lon="2.02106">
        <ele>164.582</ele>
        <time>2013-08-01T15:39:04Z</time>
      </trkpt>
      <trkpt lat="48.74672" lon="2.02149">
        <ele>164.566</ele>
        <time>2013-08-01T15:39:10Z</time>
      </trkpt>
      <trkpt lat="48.74669" lon="2.02163">
        <ele>164.45</ele>
        <time>2013-08-01T15:39:12Z</time>
      </trkpt>
      <trkpt lat="48.74667" lon="2.02177">
        <ele>164.427</ele>
        <time>2013-08-01T15:39:14Z</time>
      </trkpt>
      <trkpt lat="48.74655" lon="2.02202">
        <ele>164.488</ele>
        <time>2013-08-01T15:39:18Z</time>
      </trkpt>
      <trkpt lat="48.74638" lon="2.02214">
        <ele>164.583</ele>
        <time>2013-08-01T15:39:23Z</time>
      </trkpt>
      <trkpt lat="48.74628" lon="2.02209">
        <ele>164.589</ele>
        <time>2013-08-01T15:39:26Z</time>
      </trkpt>
      <trkpt lat="48.74619" lon="2.02189">
        <ele>164.319</ele>
        <time>2013-08-01T15:39:31Z</time>
      </trkpt>
      <trkpt lat="48.7461" lon="2.02186">
        <ele>163.921</ele>
        <time>2013-08-01T15:39:34Z</time>
      </trkpt>
      <trkpt lat="48.74604" lon="2.02194">
        <ele>163.784</ele>
        <time>2013-08-01T15:39:37Z</time>
      </trkpt>
      <trkpt lat="48.74593" lon="2.02207">
        <ele>164.532</ele>
        <time>2013-08-01T15:39:43Z</time>
      </trkpt>
      <trkpt lat="48.74582" lon="2.02217">
        <ele>165.217</ele>
        <time>2013-08-01T15:39:47Z</time>
      </trkpt>
      <trkpt lat="48.74565" lon="2.02234">
        <ele>165.77</ele>
        <time>2013-08-01T15:39:53Z</time>
      </trkpt>
      <trkpt lat="48.74554" lon="2.02248">
        <ele>166.036</ele>
        <time>2013-08-01T15:39:57Z</time>
      </trkpt>
      <trkpt lat="48.74534" lon="2.02274">
        <ele>166.214</ele>
        <time>2013-08-01T15:40:04Z</time>
      </trkpt>
      <trkpt lat="48.74525" lon="2.02285">
        <ele>166.232</ele>
        <time>2013-08-01T15:40:08Z</time>
      </trkpt>
      <trkpt lat="48.74513" lon="2.02308">
        <ele>166.383</ele>
        <time>2013-08-01T15:40:14Z</time>
      </trkpt>
      <trkpt lat="48.74503" lon="2.02328">
        <ele>166.49</ele>
        <time>2013-08-01T15:40:19Z</time>
      </trkpt>
      <trkpt lat="48.74493" lon="2.02354">
        <ele>166.912</ele>
        <time>2013-08-01T15:40:24Z</time>
      </trkpt>
      <trkpt lat="48.74481" lon="2.02384">
        <ele>167.038</ele>
        <time>2013-08-01T15:40:29Z</time>
      </trkpt>
      <trkpt lat="48.74479" lon="2.02391">
        <ele>167.081</ele>
        <time>2013-08-01T15:40:30Z</time>
      </trkpt>
      <trkpt lat="48.74473" lon="2.02405">
        <ele>167.181</ele>
        <time>2013-08-01T15:40:32Z</time>
      </trkpt>
      <trkpt lat="48.74468" lon="2.02425">
        <ele>167.58</ele>
        <time>2013-08-01T15:40:35Z</time>
      </trkpt>
      <trkpt lat="48.7447" lon="2.02453">
        <ele>167.843</ele>
        <time>2013-08-01T15:40:39Z</time>
      </trkpt>
      <trkpt lat="48.74471" lon="2.02493">
        <ele>167.941</ele>
        <time>2013-08-01T15:40:45Z</time>
      </trkpt>
      <trkpt lat="48.74473" lon="2.02507">
        <ele>167.911</ele>
        <time>2013-08-01T15:40:47Z</time>
      </trkpt>
      <trkpt lat="48.74472" lon="2.02536">
        <ele>167.904</ele>
        <time>2013-08-01T15:40:51Z</time>
      </trkpt>
      <trkpt lat="48.74467" lon="2.02551">
        <ele>167.97</ele>
        <time>2013-08-01T15:40:53Z</time>
      </trkpt>
      <trkpt lat="48.74453" lon="2.02592">
        <ele>168.35</ele>
        <time>2013-08-01T15:41:00Z</time>
      </trkpt>
      <trkpt lat="48.74445" lon="2.02602">
        <ele>168.312</ele>
        <time>2013-08-01T15:41:02Z</time>
      </trkpt>
      <trkpt lat="48.7443" lon="2.02626">
        <ele>168.169</ele>
        <time>2013-08-01T15:41:08Z</time>
      </trkpt>
      <trkpt lat="48.74424" lon="2.02651">
        <ele>168.393</ele>
        <time>2013-08-01T15:41:13Z</time>
      </trkpt>
      <trkpt lat="48.7442" lon="2.02661">
        <ele>168.46</ele>
        <time>2013-08-01T15:41:15Z</time>
      </trkpt>
      <trkpt lat="48.74411" lon="2.02699">
        <ele>168.306</ele>
        <time>2013-08-01T15:41:21Z</time>
      </trkpt>
      <trkpt lat="48.74403" lon="2.02723">
        <ele>168.154</ele>
        <time>2013-08-01T15:41:25Z</time>
      </trkpt>
      <trkpt lat="48.74392" lon="2.02745">
        <ele>167.916</ele>
        <time>2013-08-01T15:41:29Z</time>
      </trkpt>
      <trkpt lat="48.74384" lon="2.02753">
        <ele>167.715</ele>
        <time>2013-08-01T15:41:31Z</time>
      </trkpt>
      <trkpt lat="48.74356" lon="2.02769">
        <ele>167.088</ele>
        <time>2013-08-01T15:41:37Z</time>
      </trkpt>
      <trkpt lat="48.74326" lon="2.02796">
        <ele>166.522</ele>
        <time>2013-08-01T15:41:44Z</time>
      </trkpt>
      <trkpt lat="48.74302" lon="2.02821">
        <ele>166.174</ele>
        <time>2013-08-01T15:41:50Z</time>
      </trkpt>
      <trkpt lat="48.74294" lon="2.02829">
        <ele>166.109</ele>
        <time>2013-08-01T15:41:52Z</time>
      </trkpt>
      <trkpt lat="48.74263" lon="2.02869">
        <ele>165.889</ele>
        <time>2013-08-01T15:42:01Z</time>
      </trkpt>
      <trkpt lat="48.74234" lon="2.02909">
        <ele>166.075</ele>
        <time>2013-08-01T15:42:10Z</time>
      </trkpt>
      <trkpt lat="48.74201" lon="2.02959">
        <ele>166.008</ele>
        <time>2013-08-01T15:42:20Z</time>
      </trkpt>
      <trkpt lat="48.74163" lon="2.03018">
        <ele>166.462</ele>
        <time>2013-08-01T15:42:32Z</time>
      </trkpt>
      <trkpt lat="48.74139" lon="2.03069">
        <ele>166.956</ele>
        <time>2013-08-01T15:42:41Z</time>
      </trkpt>
      <trkpt lat="48.74123" lon="2.03115">
        <ele>167.266</ele>
        <time>2013-08-01T15:42:48Z</time>
      </trkpt>
      <trkpt lat="48.74099" lon="2.03195">
        <ele>168.107</ele>
        <time>2013-08-01T15:43:00Z</time>
      </trkpt>
      <trkpt lat="48.74078" lon="2.03268">
        <ele>168.308</ele>
        <time>2013-08-01T15:43:11Z</time>
      </trkpt>
      <trkpt lat="48.74065" lon="2.03315">
        <ele>168.254</ele>
        <time>2013-08-01T15:43:18Z</time>
      </trkpt>
      <trkpt lat="48.74048" lon="2.03405">
        <ele>168.373</ele>
        <time>2013-08-01T15:43:30Z</time>
      </trkpt>
      <trkpt lat="48.74044" lon="2.03427">
        <ele>168.301</ele>
        <time>2013-08-01T15:43:33Z</time>
      </trkpt>
      <trkpt lat="48.74041" lon="2.03453">
        <ele>168.099</ele>
        <time>2013-08-01T15:43:37Z</time>
      </trkpt>
      <trkpt lat="48.74033" lon="2.03489">
        <ele>167.935</ele>
        <time>2013-08-01T15:43:43Z</time>
      </trkpt>
      <trkpt lat="48.7403" lon="2.03495">
        <ele>167.958</ele>
        <time>2013-08-01T15:43:44Z</time>
      </trkpt>
      <trkpt lat="48.74013" lon="2.03517">
        <ele>167.596</ele>
        <time>2013-08-01T15:43:49Z</time>
      </trkpt>
      <trkpt lat="48.73992" lon="2.03556">
        <ele>167.346</ele>
        <time>2013-08-01T15:43:57Z</time>
      </trkpt>
      <trkpt lat="48.73977" lon="2.03595">
        <ele>167.533</ele>
        <time>2013-08-01T15:44:04Z</time>
      </trkpt>
      <trkpt lat="48.73966" lon="2.03631">
        <ele>167.604</ele>
        <time>2013-08-01T15:44:10Z</time>
      </trkpt>
      <trkpt lat="48.73953" lon="2.03651">
        <ele>167.551</ele>
        <time>2013-08-01T15:44:14Z</time>
      </trkpt>
      <trkpt lat="48.73924" lon="2.03688">
        <ele>167.135</ele>
        <time>2013-08-01T15:44:22Z</time>
      </trkpt>
      <trkpt lat="48.73911" lon="2.03706">
        <ele>166.944</ele>
        <time>2013-08-01T15:44:26Z</time>
      </trkpt>
      <trkpt lat="48.73893" lon="2.0371">
        <ele>166.915</ele>
        <time>2013-08-01T15:44:31Z</time>
      </trkpt>
      <trkpt lat="48.73883" lon="2.03698">
        <ele>166.914</ele>
        <time>2013-08-01T15:44:34Z</time>
      </trkpt>
      <trkpt lat="48.7387" lon="2.03684">
        <ele>166.928</ele>
        <time>2013-08-01T15:44:38Z</time>
      </trkpt>
      <trkpt lat="48.73848" lon="2.03678">
        <ele>166.8</ele>
        <time>2013-08-01T15:44:43Z</time>
      </trkpt>
      <trkpt lat="48.73839" lon="2.03681">
        <ele>166.564</ele>
        <time>2013-08-01T15:44:45Z</time>
      </trkpt>
      <trkpt lat="48.73825" lon="2.03693">
        <ele>166.168</ele>
        <time>2013-08-01T15:44:49Z</time>
      </trkpt>
      <trkpt lat="48.73799" lon="2.03722">
        <ele>166.47</ele>
        <time>2013-08-01T15:44:57Z</time>
      </trkpt>
      <trkpt lat="48.7379" lon="2.03745">
        <ele>166.77</ele>
        <time>2013-08-01T15:45:02Z</time>
      </trkpt>
      <trkpt lat="48.73797" lon="2.03765">
        <ele>166.969</ele>
        <time>2013-08-01T15:45:06Z</time>
      </trkpt>
      <trkpt lat="48.73822" lon="2.03824">
        <ele>167.533</ele>
        <time>2013-08-01T15:45:17Z</time>
      </trkpt>
      <trkpt lat="48.73844" lon="2.03876">
        <ele>167.385</ele>
        <time>2013-08-01T15:45:26Z</time>
      </trkpt>
      <trkpt lat="48.73868" lon="2.03922">
        <ele>168.034</ele>
        <time>2013-08-01T15:45:35Z</time>
      </trkpt>
      <trkpt lat="48.73882" lon="2.03947">
        <ele>167.774</ele>
        <time>2013-08-01T15:45:41Z</time>
      </trkpt>
      <trkpt lat="48.73883" lon="2.0395">
        <ele>167.767</ele>
        <time>2013-08-01T15:45:42Z</time>
      </trkpt>
      <trkpt lat="48.73891" lon="2.03963">
        <ele>167.576</ele>
        <time>2013-08-01T15:45:47Z</time>
      </trkpt>
      <trkpt lat="48.73916" lon="2.04011">
        <ele>167.1</ele>
        <time>2013-08-01T15:45:57Z</time>
      </trkpt>
      <trkpt lat="48.7394" lon="2.04067">
        <ele>167.727</ele>
        <time>2013-08-01T15:46:07Z</time>
      </trkpt>
      <trkpt lat="48.73964" lon="2.04124">
        <ele>168.159</ele>
        <time>2013-08-01T15:46:17Z</time>
      </trkpt>
      <trkpt lat="48.73991" lon="2.04193">
        <ele>168.205</ele>
        <time>2013-08-01T15:46:28Z</time>
      </trkpt>
      <trkpt lat="48.74013" lon="2.04238">
        <ele>168.122</ele>
        <time>2013-08-01T15:46:36Z</time>
      </trkpt>
      <trkpt lat="48.74029" lon="2.04266">
        <ele>168.116</ele>
        <time>2013-08-01T15:46:42Z</time>
      </trkpt>
      <trkpt lat="48.74024" lon="2.04282">
        <ele>168.431</ele>
        <time>2013-08-01T15:46:46Z</time>
      </trkpt>
      <trkpt lat="48.73987" lon="2.04303">
        <ele>168.503</ele>
        <time>2013-08-01T15:46:56Z</time>
      </trkpt>
      <trkpt lat="48.73945" lon="2.04317">
        <ele>168.062</ele>
        <time>2013-08-01T15:47:06Z</time>
      </trkpt>
      <trkpt lat="48.73904" lon="2.04324">
        <ele>168.033</ele>
        <time>2013-08-01T15:47:15Z</time>
      </trkpt>
      <trkpt lat="48.73858" lon="2.04331">
        <ele>167.952</ele>
        <time>2013-08-01T15:47:25Z</time>
      </trkpt>
      <trkpt lat="48.73815" lon="2.04341">
        <ele>167.808</ele>
        <time>2013-08-01T15:47:35Z</time>
      </trkpt>
      <trkpt lat="48.73769" lon="2.04352">
        <ele>167.868</ele>
        <time>2013-08-01T15:47:45Z</time>
      </trkpt>
      <trkpt lat="48.73711" lon="2.04364">
        <ele>167.713</ele>
        <time>2013-08-01T15:47:57Z</time>
      </trkpt>
      <trkpt lat="48.73665" lon="2.04374">
        <ele>167.34</ele>
        <time>2013-08-01T15:48:07Z</time>
      </trkpt>
      <trkpt lat="48.73628" lon="2.0438">
        <ele>167.635</ele>
        <time>2013-08-01T15:48:15Z</time>
      </trkpt>
      <trkpt lat="48.7362" lon="2.04382">
        <ele>167.603</ele>
        <time>2013-08-01T15:48:17Z</time>
      </trkpt>
      <trkpt lat="48.7359" lon="2.04391">
        <ele>167.346</ele>
        <time>2013-08-01T15:48:25Z</time>
      </trkpt>
      <trkpt lat="48.73579" lon="2.04394">
        <ele>167.429</ele>
        <time>2013-08-01T15:48:29Z</time>
      </trkpt>
      <trkpt lat="48.73561" lon="2.04399">
        <ele>167.366</ele>
        <time>2013-08-01T15:48:34Z</time>
      </trkpt>
      <trkpt lat="48.73534" lon="2.0441">
        <ele>167.17</ele>
        <time>2013-08-01T15:48:42Z</time>
      </trkpt>
      <trkpt lat="48.7353" lon="2.04411">
        <ele>167.262</ele>
        <time>2013-08-01T15:48:43Z</time>
      </trkpt>
      <trkpt lat="48.73511" lon="2.04417">
        <ele>167.458</ele>
        <time>2013-08-01T15:48:48Z</time>
      </trkpt>
      <trkpt lat="48.73483" lon="2.04429">
        <ele>167.132</ele>
        <time>2013-08-01T15:48:55Z</time>
      </trkpt>
      <trkpt lat="48.73479" lon="2.04431">
        <ele>167.096</ele>
        <time>2013-08-01T15:48:56Z</time>
      </trkpt>
      <trkpt lat="48.73442" lon="2.04446">
        <ele>166.563</ele>
        <time>2013-08-01T15:49:03Z</time>
      </trkpt>
      <trkpt lat="48.73428" lon="2.04451">
        <ele>166.495</ele>
        <time>2013-08-01T15:49:06Z</time>
      </trkpt>
      <trkpt lat="48.73392" lon="2.04465">
        <ele>166.111</ele>
        <time>2013-08-01T15:49:13Z</time>
      </trkpt>
      <trkpt lat="48.73366" lon="2.04474">
        <ele>165.493</ele>
        <time>2013-08-01T15:49:18Z</time>
      </trkpt>
      <trkpt lat="48.73336" lon="2.04486">
        <ele>164.531</ele>
        <time>2013-08-01T15:49:24Z</time>
      </trkpt>
      <trkpt lat="48.73328" lon="2.04491">
        <ele>164.223</ele>
        <time>2013-08-01T15:49:26Z</time>
      </trkpt>
      <trkpt lat="48.73317" lon="2.04508">
        <ele>163.825</ele>
        <time>2013-08-01T15:49:31Z</time>
      </trkpt>
      <trkpt lat="48.7332" lon="2.04523">
        <ele>163.641</ele>
        <time>2013-08-01T15:49:35Z</time>
      </trkpt>
      <trkpt lat="48.73327" lon="2.04536">
        <ele>163.716</ele>
        <time>2013-08-01T15:49:39Z</time>
      </trkpt>
      <trkpt lat="48.73341" lon="2.04564">
        <ele>164.345</ele>
        <time>2013-08-01T15:49:46Z</time>
      </trkpt>
      <trkpt lat="48.73351" lon="2.04587">
        <ele>165.062</ele>
        <time>2013-08-01T15:49:52Z</time>
      </trkpt>
      <trkpt lat="48.73359" lon="2.04608">
        <ele>165.628</ele>
        <time>2013-08-01T15:49:57Z</time>
      </trkpt>
      <trkpt lat="48.73364" lon="2.04631">
        <ele>165.868</ele>
        <time>2013-08-01T15:50:02Z</time>
      </trkpt>
      <trkpt lat="48.73367" lon="2.04656">
        <ele>166.225</ele>
        <time>2013-08-01T15:50:08Z</time>
      </trkpt>
      <trkpt lat="48.73369" lon="2.04684">
        <ele>166.547</ele>
        <time>2013-08-01T15:50:15Z</time>
      </trkpt>
      <trkpt lat="48.73372" lon="2.04709">
        <ele>166.568</ele>
        <time>2013-08-01T15:50:21Z</time>
      </trkpt>
      <trkpt lat="48.73373" lon="2.0473">
        <ele>167.042</ele>
        <time>2013-08-01T15:50:26Z</time>
      </trkpt>
      <trkpt lat="48.73379" lon="2.0475">
        <ele>167.476</ele>
        <time>2013-08-01T15:50:31Z</time>
      </trkpt>
      <trkpt lat="48.73385" lon="2.04777">
        <ele>167.954</ele>
        <time>2013-08-01T15:50:37Z</time>
      </trkpt>
      <trkpt lat="48.73386" lon="2.04804">
        <ele>168.081</ele>
        <time>2013-08-01T15:50:43Z</time>
      </trkpt>
      <trkpt lat="48.73385" lon="2.04829">
        <ele>168.255</ele>
        <time>2013-08-01T15:50:48Z</time>
      </trkpt>
      <trkpt lat="48.73381" lon="2.0486">
        <ele>168.667</ele>
        <time>2013-08-01T15:50:54Z</time>
      </trkpt>
      <trkpt lat="48.73379" lon="2.04889">
        <ele>169.098</ele>
        <time>2013-08-01T15:51:00Z</time>
      </trkpt>
      <trkpt lat="48.73383" lon="2.04909">
        <ele>169.44</ele>
        <time>2013-08-01T15:51:05Z</time>
      </trkpt>
      <trkpt lat="48.73385" lon="2.04925">
        <ele>169.364</ele>
        <time>2013-08-01T15:51:10Z</time>
      </trkpt>
      <trkpt lat="48.73385" lon="2.04928">
        <ele>169.337</ele>
        <time>2013-08-01T15:51:11Z</time>
      </trkpt>
      <trkpt lat="48.7337" lon="2.04941">
        <ele>169.266</ele>
        <time>2013-08-01T15:51:17Z</time>
      </trkpt>
      <trkpt lat="48.73358" lon="2.04956">
        <ele>169.182</ele>
        <time>2013-08-01T15:51:21Z</time>
      </trkpt>
      <trkpt lat="48.73355" lon="2.04961">
        <ele>169.158</ele>
        <time>2013-08-01T15:51:22Z</time>
      </trkpt>
      <trkpt lat="48.73336" lon="2.04996">
        <ele>168.392</ele>
        <time>2013-08-01T15:51:29Z</time>
      </trkpt>
      <trkpt lat="48.73332" lon="2.05">
        <ele>168.238</ele>
        <time>2013-08-01T15:51:30Z</time>
      </trkpt>
      <trkpt lat="48.73309" lon="2.05032">
        <ele>168.193</ele>
        <time>2013-08-01T15:51:37Z</time>
      </trkpt>
      <trkpt lat="48.73291" lon="2.05065">
        <ele>167.783</ele>
        <time>2013-08-01T15:51:44Z</time>
      </trkpt>
      <trkpt lat="48.73278" lon="2.05086">
        <ele>167.375</ele>
        <time>2013-08-01T15:51:49Z</time>
      </trkpt>
      <trkpt lat="48.73262" lon="2.05111">
        <ele>167.153</ele>
        <time>2013-08-01T15:51:55Z</time>
      </trkpt>
      <trkpt lat="48.7324" lon="2.05152">
        <ele>166.91</ele>
        <time>2013-08-01T15:52:03Z</time>
      </trkpt>
      <trkpt lat="48.73221" lon="2.05179">
        <ele>166.289</ele>
        <time>2013-08-01T15:52:09Z</time>
      </trkpt>
      <trkpt lat="48.73211" lon="2.05194">
        <ele>165.979</ele>
        <time>2013-08-01T15:52:13Z</time>
      </trkpt>
      <trkpt lat="48.73208" lon="2.05199">
        <ele>165.971</ele>
        <time>2013-08-01T15:52:14Z</time>
      </trkpt>
      <trkpt lat="48.73188" lon="2.05228">
        <ele>164.054</ele>
        <time>2013-08-01T15:52:20Z</time>
      </trkpt>
      <trkpt lat="48.73178" lon="2.05243">
        <ele>162.564</ele>
        <time>2013-08-01T15:52:23Z</time>
      </trkpt>
      <trkpt lat="48.73181" lon="2.05274">
        <ele>161.06</ele>
        <time>2013-08-01T15:52:28Z</time>
      </trkpt>
      <trkpt lat="48.73186" lon="2.05284">
        <ele>160.664</ele>
        <time>2013-08-01T15:52:30Z</time>
      </trkpt>
      <trkpt lat="48.73196" lon="2.05312">
        <ele>161.507</ele>
        <time>2013-08-01T15:52:37Z</time>
      </trkpt>
      <trkpt lat="48.73196" lon="2.05337">
        <ele>162.154</ele>
        <time>2013-08-01T15:52:42Z</time>
      </trkpt>
      <trkpt lat="48.73194" lon="2.05364">
        <ele>162.099</ele>
        <time>2013-08-01T15:52:47Z</time>
      </trkpt>
      <trkpt lat="48.73199" lon="2.05386">
        <ele>161.762</ele>
        <time>2013-08-01T15:52:51Z</time>
      </trkpt>
      <trkpt lat="48.73212" lon="2.05405">
        <ele>161.625</ele>
        <time>2013-08-01T15:52:56Z</time>
      </trkpt>
      <trkpt lat="48.7322" lon="2.0542">
        <ele>161.838</ele>
        <time>2013-08-01T15:53:01Z</time>
      </trkpt>
      <trkpt lat="48.7323" lon="2.05436">
        <ele>162.167</ele>
        <time>2013-08-01T15:53:06Z</time>
      </trkpt>
      <trkpt lat="48.7324" lon="2.05455">
        <ele>163.042</ele>
        <time>2013-08-01T15:53:11Z</time>
      </trkpt>
      <trkpt lat="48.73251" lon="2.05485">
        <ele>163.402</ele>
        <time>2013-08-01T15:53:18Z</time>
      </trkpt>
      <trkpt lat="48.73259" lon="2.05511">
        <ele>163.464</ele>
        <time>2013-08-01T15:53:24Z</time>
      </trkpt>
      <trkpt lat="48.73269" lon="2.05532">
        <ele>163.61</ele>
        <time>2013-08-01T15:53:29Z</time>
      </trkpt>
      <trkpt lat="48.7328" lon="2.05562">
        <ele>163.846</ele>
        <time>2013-08-01T15:53:35Z</time>
      </trkpt>
      <trkpt lat="48.73289" lon="2.05584">
        <ele>164.271</ele>
        <time>2013-08-01T15:53:40Z</time>
      </trkpt>
      <trkpt lat="48.73293" lon="2.05605">
        <ele>164.721</ele>
        <time>2013-08-01T15:53:45Z</time>
      </trkpt>
      <trkpt lat="48.73293" lon="2.05629">
        <ele>164.8</ele>
        <time>2013-08-01T15:53:50Z</time>
      </trkpt>
      <trkpt lat="48.73289" lon="2.05649">
        <ele>164.65</ele>
        <time>2013-08-01T15:53:54Z</time>
      </trkpt>
      <trkpt lat="48.73287" lon="2.0566">
        <ele>164.47</ele>
        <time>2013-08-01T15:53:56Z</time>
      </trkpt>
      <trkpt lat="48.73283" lon="2.05687">
        <ele>163.859</ele>
        <time>2013-08-01T15:54:00Z</time>
      </trkpt>
      <trkpt lat="48.73278" lon="2.05703">
        <ele>163.653</ele>
        <time>2013-08-01T15:54:03Z</time>
      </trkpt>
      <trkpt lat="48.73278" lon="2.05744">
        <ele>164.209</ele>
        <time>2013-08-01T15:54:10Z</time>
      </trkpt>
      <trkpt lat="48.73278" lon="2.0577">
        <ele>164.787</ele>
        <time>2013-08-01T15:54:15Z</time>
      </trkpt>
      <trkpt lat="48.73278" lon="2.05795">
        <ele>165.376</ele>
        <time>2013-08-01T15:54:20Z</time>
      </trkpt>
      <trkpt lat="48.73278" lon="2.05814">
        <ele>165.789</ele>
        <time>2013-08-01T15:54:24Z</time>
      </trkpt>
      <trkpt lat="48.73278" lon="2.05829">
        <ele>165.809</ele>
        <time>2013-08-01T15:54:29Z</time>
      </trkpt>
      <trkpt lat="48.73284" lon="2.05836">
        <ele>166.205</ele>
        <time>2013-08-01T15:54:35Z</time>
      </trkpt>
      <trkpt lat="48.73291" lon="2.05838">
        <ele>167.19</ele>
        <time>2013-08-01T15:54:41Z</time>
      </trkpt>
      <trkpt lat="48.73307" lon="2.05847">
        <ele>167.707</ele>
        <time>2013-08-01T15:54:48Z</time>
      </trkpt>
      <trkpt lat="48.73322" lon="2.05861">
        <ele>168.078</ele>
        <time>2013-08-01T15:54:54Z</time>
      </trkpt>
      <trkpt lat="48.73334" lon="2.05873">
        <ele>168.3</ele>
        <time>2013-08-01T15:54:59Z</time>
      </trkpt>
      <trkpt lat="48.73343" lon="2.0588">
        <ele>168.571</ele>
        <time>2013-08-01T15:55:03Z</time>
      </trkpt>
      <trkpt lat="48.73345" lon="2.05894">
        <ele>169.032</ele>
        <time>2013-08-01T15:55:08Z</time>
      </trkpt>
      <trkpt lat="48.73331" lon="2.05925">
        <ele>168.785</ele>
        <time>2013-08-01T15:55:18Z</time>
      </trkpt>
      <trkpt lat="48.73327" lon="2.05932">
        <ele>168.576</ele>
        <time>2013-08-01T15:55:22Z</time>
      </trkpt>
      <trkpt lat="48.73329" lon="2.05937">
        <ele>168.723</ele>
        <time>2013-08-01T15:55:32Z</time>
      </trkpt>
      <trkpt lat="48.73329" lon="2.05944">
        <ele>168.758</ele>
        <time>2013-08-01T15:55:57Z</time>
      </trkpt>
      <trkpt lat="48.7332" lon="2.0597">
        <ele>168.824</ele>
        <time>2013-08-01T15:56:05Z</time>
      </trkpt>
      <trkpt lat="48.73309" lon="2.06">
        <ele>168.634</ele>
        <time>2013-08-01T15:56:12Z</time>
      </trkpt>
      <trkpt lat="48.73296" lon="2.06035">
        <ele>168.598</ele>
        <time>2013-08-01T15:56:20Z</time>
      </trkpt>
      <trkpt lat="48.7328" lon="2.0606">
        <ele>168.519</ele>
        <time>2013-08-01T15:56:26Z</time>
      </trkpt>
      <trkpt lat="48.73259" lon="2.06078">
        <ele>168.33</ele>
        <time>2013-08-01T15:56:32Z</time>
      </trkpt>
      <trkpt lat="48.73237" lon="2.06111">
        <ele>167.893</ele>
        <time>2013-08-01T15:56:40Z</time>
      </trkpt>
      <trkpt lat="48.73207" lon="2.06157">
        <ele>167.544</ele>
        <time>2013-08-01T15:56:50Z</time>
      </trkpt>
      <trkpt lat="48.73181" lon="2.06197">
        <ele>167.253</ele>
        <time>2013-08-01T15:56:58Z</time>
      </trkpt>
      <trkpt lat="48.73158" lon="2.06227">
        <ele>166.909</ele>
        <time>2013-08-01T15:57:05Z</time>
      </trkpt>
      <trkpt lat="48.73134" lon="2.06239">
        <ele>166.514</ele>
        <time>2013-08-01T15:57:11Z</time>
      </trkpt>
      <trkpt lat="48.73122" lon="2.06246">
        <ele>166.316</ele>
        <time>2013-08-01T15:57:14Z</time>
      </trkpt>
      <trkpt lat="48.73087" lon="2.06262">
        <ele>166.113</ele>
        <time>2013-08-01T15:57:23Z</time>
      </trkpt>
      <trkpt lat="48.73053" lon="2.06276">
        <ele>166.422</ele>
        <time>2013-08-01T15:57:32Z</time>
      </trkpt>
      <trkpt lat="48.73028" lon="2.06297">
        <ele>166.979</ele>
        <time>2013-08-01T15:57:39Z</time>
      </trkpt>
      <trkpt lat="48.73005" lon="2.06332">
        <ele>167.638</ele>
        <time>2013-08-01T15:57:47Z</time>
      </trkpt>
      <trkpt lat="48.72981" lon="2.06375">
        <ele>168.061</ele>
        <time>2013-08-01T15:57:56Z</time>
      </trkpt>
      <trkpt lat="48.72963" lon="2.06407">
        <ele>167.78</ele>
        <time>2013-08-01T15:58:03Z</time>
      </trkpt>
      <trkpt lat="48.7295" lon="2.06422">
        <ele>167.617</ele>
        <time>2013-08-01T15:58:07Z</time>
      </trkpt>
      <trkpt lat="48.72917" lon="2.06451">
        <ele>166.772</ele>
        <time>2013-08-01T15:58:16Z</time>
      </trkpt>
      <trkpt lat="48.72883" lon="2.0648">
        <ele>166.649</ele>
        <time>2013-08-01T15:58:25Z</time>
      </trkpt>
      <trkpt lat="48.72857" lon="2.06507">
        <ele>166.511</ele>
        <time>2013-08-01T15:58:32Z</time>
      </trkpt>
      <trkpt lat="48.72835" lon="2.06533">
        <ele>165.541</ele>
        <time>2013-08-01T15:58:38Z</time>
      </trkpt>
      <trkpt lat="48.72804" lon="2.06582">
        <ele>163.954</ele>
        <time>2013-08-01T15:58:47Z</time>
      </trkpt>
      <trkpt lat="48.72781" lon="2.06619">
        <ele>163.741</ele>
        <time>2013-08-01T15:58:54Z</time>
      </trkpt>
      <trkpt lat="48.72759" lon="2.06656">
        <ele>164</ele>
        <time>2013-08-01T15:59:02Z</time>
      </trkpt>
      <trkpt lat="48.72742" lon="2.06696">
        <ele>164.472</ele>
        <time>2013-08-01T15:59:10Z</time>
      </trkpt>
      <trkpt lat="48.7273" lon="2.06728">
        <ele>165.104</ele>
        <time>2013-08-01T15:59:16Z</time>
      </trkpt>
      <trkpt lat="48.72711" lon="2.06775">
        <ele>165.428</ele>
        <time>2013-08-01T15:59:25Z</time>
      </trkpt>
      <trkpt lat="48.72696" lon="2.06813">
        <ele>165.131</ele>
        <time>2013-08-01T15:59:32Z</time>
      </trkpt>
      <trkpt lat="48.72681" lon="2.06846">
        <ele>164.678</ele>
        <time>2013-08-01T15:59:38Z</time>
      </trkpt>
      <trkpt lat="48.72651" lon="2.06896">
        <ele>164.419</ele>
        <time>2013-08-01T15:59:47Z</time>
      </trkpt>
      <trkpt lat="48.72618" lon="2.0695">
        <ele>163.246</ele>
        <time>2013-08-01T15:59:56Z</time>
      </trkpt>
      <trkpt lat="48.72577" lon="2.07011">
        <ele>161.644</ele>
        <time>2013-08-01T16:00:06Z</time>
      </trkpt>
      <trkpt lat="48.72545" lon="2.07053">
        <ele>160.285</ele>
        <time>2013-08-01T16:00:13Z</time>
      </trkpt>
      <trkpt lat="48.7254" lon="2.07061">
        <ele>159.883</ele>
        <time>2013-08-01T16:00:15Z</time>
      </trkpt>
      <trkpt lat="48.72525" lon="2.07065">
        <ele>158.763</ele>
        <time>2013-08-01T16:00:20Z</time>
      </trkpt>
      <trkpt lat="48.72511" lon="2.07077">
        <ele>158.205</ele>
        <time>2013-08-01T16:00:24Z</time>
      </trkpt>
      <trkpt lat="48.72503" lon="2.07101">
        <ele>157.959</ele>
        <time>2013-08-01T16:00:28Z</time>
      </trkpt>
      <trkpt lat="48.72495" lon="2.07118">
        <ele>157.678</ele>
        <time>2013-08-01T16:00:31Z</time>
      </trkpt>
      <trkpt lat="48.72484" lon="2.07141">
        <ele>157.402</ele>
        <time>2013-08-01T16:00:35Z</time>
      </trkpt>
      <trkpt lat="48.72474" lon="2.07167">
        <ele>157.629</ele>
        <time>2013-08-01T16:00:39Z</time>
      </trkpt>
      <trkpt lat="48.72463" lon="2.0719">
        <ele>157.963</ele>
        <time>2013-08-01T16:00:44Z</time>
      </trkpt>
      <trkpt lat="48.72448" lon="2.07213">
        <ele>157.744</ele>
        <time>2013-08-01T16:00:49Z</time>
      </trkpt>
      <trkpt lat="48.72432" lon="2.07243">
        <ele>157.209</ele>
        <time>2013-08-01T16:00:55Z</time>
      </trkpt>
      <trkpt lat="48.72429" lon="2.07247">
        <ele>157.054</ele>
        <time>2013-08-01T16:00:56Z</time>
      </trkpt>
      <trkpt lat="48.72413" lon="2.07275">
        <ele>156.79</ele>
        <time>2013-08-01T16:01:02Z</time>
      </trkpt>
      <trkpt lat="48.72401" lon="2.07301">
        <ele>157.085</ele>
        <time>2013-08-01T16:01:07Z</time>
      </trkpt>
      <trkpt lat="48.72397" lon="2.07317">
        <ele>157.465</ele>
        <time>2013-08-01T16:01:10Z</time>
      </trkpt>
      <trkpt lat="48.72396" lon="2.07342">
        <ele>157.985</ele>
        <time>2013-08-01T16:01:14Z</time>
      </trkpt>
      <trkpt lat="48.724" lon="2.07368">
        <ele>158.397</ele>
        <time>2013-08-01T16:01:19Z</time>
      </trkpt>
      <trkpt lat="48.72401" lon="2.07373">
        <ele>158.458</ele>
        <time>2013-08-01T16:01:20Z</time>
      </trkpt>
      <trkpt lat="48.72399" lon="2.07383">
        <ele>158.564</ele>
        <time>2013-08-01T16:01:24Z</time>
      </trkpt>
      <trkpt lat="48.7239" lon="2.07399">
        <ele>158.383</ele>
        <time>2013-08-01T16:01:29Z</time>
      </trkpt>
      <trkpt lat="48.72382" lon="2.07433">
        <ele>158.776</ele>
        <time>2013-08-01T16:01:37Z</time>
      </trkpt>
      <trkpt lat="48.72378" lon="2.07452">
        <ele>158.858</ele>
        <time>2013-08-01T16:01:43Z</time>
      </trkpt>
      <trkpt lat="48.72372" lon="2.07475">
        <ele>159.153</ele>
        <time>2013-08-01T16:01:49Z</time>
      </trkpt>
      <trkpt lat="48.7236" lon="2.07518">
        <ele>159.767</ele>
        <time>2013-08-01T16:01:58Z</time>
      </trkpt>
      <trkpt lat="48.7235" lon="2.07565">
        <ele>160.171</ele>
        <time>2013-08-01T16:02:07Z</time>
      </trkpt>
      <trkpt lat="48.72339" lon="2.07611">
        <ele>160.72</ele>
        <time>2013-08-01T16:02:15Z</time>
      </trkpt>
      <trkpt lat="48.72335" lon="2.07631">
        <ele>161.06</ele>
        <time>2013-08-01T16:02:19Z</time>
      </trkpt>
      <trkpt lat="48.72345" lon="2.07661">
        <ele>161.163</ele>
        <time>2013-08-01T16:02:26Z</time>
      </trkpt>
      <trkpt lat="48.72355" lon="2.07696">
        <ele>161.394</ele>
        <time>2013-08-01T16:02:34Z</time>
      </trkpt>
      <trkpt lat="48.72363" lon="2.07735">
        <ele>161.836</ele>
        <time>2013-08-01T16:02:42Z</time>
      </trkpt>
      <trkpt lat="48.72368" lon="2.07768">
        <ele>162.321</ele>
        <time>2013-08-01T16:02:49Z</time>
      </trkpt>
      <trkpt lat="48.72375" lon="2.07818">
        <ele>163.129</ele>
        <time>2013-08-01T16:02:59Z</time>
      </trkpt>
      <trkpt lat="48.72379" lon="2.0785">
        <ele>163.859</ele>
        <time>2013-08-01T16:03:06Z</time>
      </trkpt>
      <trkpt lat="48.72381" lon="2.07868">
        <ele>164.248</ele>
        <time>2013-08-01T16:03:11Z</time>
      </trkpt>
      <trkpt lat="48.72388" lon="2.07901">
        <ele>164.653</ele>
        <time>2013-08-01T16:03:19Z</time>
      </trkpt>
      <trkpt lat="48.72395" lon="2.07942">
        <ele>165.261</ele>
        <time>2013-08-01T16:03:28Z</time>
      </trkpt>
      <trkpt lat="48.72404" lon="2.07994">
        <ele>165.982</ele>
        <time>2013-08-01T16:03:39Z</time>
      </trkpt>
      <trkpt lat="48.72408" lon="2.08021">
        <ele>166.267</ele>
        <time>2013-08-01T16:03:45Z</time>
      </trkpt>
      <trkpt lat="48.72415" lon="2.08064">
        <ele>166.903</ele>
        <time>2013-08-01T16:03:54Z</time>
      </trkpt>
      <trkpt lat="48.72424" lon="2.08121">
        <ele>167.269</ele>
        <time>2013-08-01T16:04:05Z</time>
      </trkpt>
      <trkpt lat="48.72433" lon="2.08176">
        <ele>167.897</ele>
        <time>2013-08-01T16:04:15Z</time>
      </trkpt>
      <trkpt lat="48.72439" lon="2.08217">
        <ele>168.002</ele>
        <time>2013-08-01T16:04:23Z</time>
      </trkpt>
      <trkpt lat="48.72445" lon="2.08247">
        <ele>168.173</ele>
        <time>2013-08-01T16:04:30Z</time>
      </trkpt>
      <trkpt lat="48.72449" lon="2.08272">
        <ele>167.847</ele>
        <time>2013-08-01T16:04:37Z</time>
      </trkpt>
      <trkpt lat="48.7245" lon="2.08276">
        <ele>167.657</ele>
        <time>2013-08-01T16:04:41Z</time>
      </trkpt>
      <trkpt lat="48.72451" lon="2.08282">
        <ele>167.844</ele>
        <time>2013-08-01T16:04:45Z</time>
      </trkpt>
      <trkpt lat="48.72458" lon="2.08324">
        <ele>168.089</ele>
        <time>2013-08-01T16:04:53Z</time>
      </trkpt>
      <trkpt lat="48.72469" lon="2.08388">
        <ele>167.814</ele>
        <time>2013-08-01T16:05:03Z</time>
      </trkpt>
      <trkpt lat="48.72461" lon="2.08414">
        <ele>167.844</ele>
        <time>2013-08-01T16:05:07Z</time>
      </trkpt>
      <trkpt lat="48.72457" lon="2.08417">
        <ele>167.896</ele>
        <time>2013-08-01T16:05:08Z</time>
      </trkpt>
      <trkpt lat="48.72438" lon="2.08438">
        <ele>167.752</ele>
        <time>2013-08-01T16:05:13Z</time>
      </trkpt>
      <trkpt lat="48.72439" lon="2.08445">
        <ele>167.679</ele>
        <time>2013-08-01T16:05:14Z</time>
      </trkpt>
      <trkpt lat="48.72448" lon="2.085">
        <ele>167.751</ele>
        <time>2013-08-01T16:05:21Z</time>
      </trkpt>
      <trkpt lat="48.72463" lon="2.08533">
        <ele>168.069</ele>
        <time>2013-08-01T16:05:26Z</time>
      </trkpt>
      <trkpt lat="48.7248" lon="2.08553">
        <ele>168.298</ele>
        <time>2013-08-01T16:05:30Z</time>
      </trkpt>
      <trkpt lat="48.72489" lon="2.08579">
        <ele>168.366</ele>
        <time>2013-08-01T16:05:34Z</time>
      </trkpt>
      <trkpt lat="48.72485" lon="2.08593">
        <ele>168.328</ele>
        <time>2013-08-01T16:05:36Z</time>
      </trkpt>
      <trkpt lat="48.72448" lon="2.08674">
        <ele>168.086</ele>
        <time>2013-08-01T16:05:48Z</time>
      </trkpt>
      <trkpt lat="48.72409" lon="2.08763">
        <ele>167.324</ele>
        <time>2013-08-01T16:06:01Z</time>
      </trkpt>
      <trkpt lat="48.72387" lon="2.08828">
        <ele>167.028</ele>
        <time>2013-08-01T16:06:10Z</time>
      </trkpt>
      <trkpt lat="48.72364" lon="2.08885">
        <ele>167.431</ele>
        <time>2013-08-01T16:06:18Z</time>
      </trkpt>
      <trkpt lat="48.7234" lon="2.0893">
        <ele>166.999</ele>
        <time>2013-08-01T16:06:26Z</time>
      </trkpt>
      <trkpt lat="48.7233" lon="2.08949">
        <ele>167.062</ele>
        <time>2013-08-01T16:06:32Z</time>
      </trkpt>
      <trkpt lat="48.72328" lon="2.08951">
        <ele>167.206</ele>
        <time>2013-08-01T16:06:37Z</time>
      </trkpt>
      <trkpt lat="48.72327" lon="2.08951">
        <ele>167.11</ele>
        <time>2013-08-01T16:06:44Z</time>
      </trkpt>
      <trkpt lat="48.72326" lon="2.08953">
        <ele>167.104</ele>
        <time>2013-08-01T16:06:50Z</time>
      </trkpt>
      <trkpt lat="48.72321" lon="2.08962">
        <ele>167.029</ele>
        <time>2013-08-01T16:06:53Z</time>
      </trkpt>
      <trkpt lat="48.72316" lon="2.08972">
        <ele>167.009</ele>
        <time>2013-08-01T16:06:55Z</time>
      </trkpt>
      <trkpt lat="48.72292" lon="2.09016">
        <ele>166.574</ele>
        <time>2013-08-01T16:07:03Z</time>
      </trkpt>
      <trkpt lat="48.72255" lon="2.09063">
        <ele>166.254</ele>
        <time>2013-08-01T16:07:13Z</time>
      </trkpt>
      <trkpt lat="48.72234" lon="2.0909">
        <ele>166.273</ele>
        <time>2013-08-01T16:07:20Z</time>
      </trkpt>
      <trkpt lat="48.72206" lon="2.09124">
        <ele>167.044</ele>
        <time>2013-08-01T16:07:28Z</time>
      </trkpt>
      <trkpt lat="48.72171" lon="2.09171">
        <ele>167.19</ele>
        <time>2013-08-01T16:07:38Z</time>
      </trkpt>
      <trkpt lat="48.72159" lon="2.0919">
        <ele>167.017</ele>
        <time>2013-08-01T16:07:42Z</time>
      </trkpt>
      <trkpt lat="48.7215" lon="2.09208">
        <ele>166.849</ele>
        <time>2013-08-01T16:07:46Z</time>
      </trkpt>
      <trkpt lat="48.72155" lon="2.09227">
        <ele>166.948</ele>
        <time>2013-08-01T16:07:50Z</time>
      </trkpt>
      <trkpt lat="48.72187" lon="2.09257">
        <ele>166.852</ele>
        <time>2013-08-01T16:07:59Z</time>
      </trkpt>
      <trkpt lat="48.72213" lon="2.09284">
        <ele>167.028</ele>
        <time>2013-08-01T16:08:06Z</time>
      </trkpt>
      <trkpt lat="48.72238" lon="2.0931">
        <ele>166.97</ele>
        <time>2013-08-01T16:08:12Z</time>
      </trkpt>
      <trkpt lat="48.72272" lon="2.09343">
        <ele>166.359</ele>
        <time>2013-08-01T16:08:20Z</time>
      </trkpt>
      <trkpt lat="48.72277" lon="2.09368">
        <ele>166.021</ele>
        <time>2013-08-01T16:08:24Z</time>
      </trkpt>
      <trkpt lat="48.72274" lon="2.09374">
        <ele>165.845</ele>
        <time>2013-08-01T16:08:25Z</time>
      </trkpt>
      <trkpt lat="48.72243" lon="2.09444">
        <ele>165.187</ele>
        <time>2013-08-01T16:08:36Z</time>
      </trkpt>
      <trkpt lat="48.72222" lon="2.09496">
        <ele>165.786</ele>
        <time>2013-08-01T16:08:44Z</time>
      </trkpt>
      <trkpt lat="48.72217" lon="2.09508">
        <ele>165.814</ele>
        <time>2013-08-01T16:08:46Z</time>
      </trkpt>
      <trkpt lat="48.72219" lon="2.09532">
        <ele>165.75</ele>
        <time>2013-08-01T16:08:50Z</time>
      </trkpt>
      <trkpt lat="48.72223" lon="2.09537">
        <ele>165.653</ele>
        <time>2013-08-01T16:08:51Z</time>
      </trkpt>
      <trkpt lat="48.72258" lon="2.09572">
        <ele>165.038</ele>
        <time>2013-08-01T16:08:59Z</time>
      </trkpt>
      <trkpt lat="48.7229" lon="2.09603">
        <ele>164.658</ele>
        <time>2013-08-01T16:09:06Z</time>
      </trkpt>
      <trkpt lat="48.72319" lon="2.09635">
        <ele>163.971</ele>
        <time>2013-08-01T16:09:12Z</time>
      </trkpt>
      <trkpt lat="48.72362" lon="2.09677">
        <ele>163.218</ele>
        <time>2013-08-01T16:09:20Z</time>
      </trkpt>
      <trkpt lat="48.72373" lon="2.09688">
        <ele>163.099</ele>
        <time>2013-08-01T16:09:22Z</time>
      </trkpt>
      <trkpt lat="48.72387" lon="2.09719">
        <ele>162.535</ele>
        <time>2013-08-01T16:09:26Z</time>
      </trkpt>
      <trkpt lat="48.72386" lon="2.09737">
        <ele>162.419</ele>
        <time>2013-08-01T16:09:28Z</time>
      </trkpt>
      <trkpt lat="48.72371" lon="2.09831">
        <ele>162.502</ele>
        <time>2013-08-01T16:09:39Z</time>
      </trkpt>
      <trkpt lat="48.72364" lon="2.09869">
        <ele>162.784</ele>
        <time>2013-08-01T16:09:44Z</time>
      </trkpt>
      <trkpt lat="48.72362" lon="2.09895">
        <ele>162.994</ele>
        <time>2013-08-01T16:09:48Z</time>
      </trkpt>
      <trkpt lat="48.72362" lon="2.09904">
        <ele>163.038</ele>
        <time>2013-08-01T16:09:50Z</time>
      </trkpt>
      <trkpt lat="48.72364" lon="2.09907">
        <ele>162.952</ele>
        <time>2013-08-01T16:09:56Z</time>
      </trkpt>
      <trkpt lat="48.72367" lon="2.09906">
        <ele>162.948</ele>
        <time>2013-08-01T16:10:10Z</time>
      </trkpt>
      <trkpt lat="48.72369" lon="2.09911">
        <ele>162.968</ele>
        <time>2013-08-01T16:10:13Z</time>
      </trkpt>
      <trkpt lat="48.72375" lon="2.09915">
        <ele>162.793</ele>
        <time>2013-08-01T16:10:18Z</time>
      </trkpt>
      <trkpt lat="48.72381" lon="2.09908">
        <ele>162.879</ele>
        <time>2013-08-01T16:10:23Z</time>
      </trkpt>
      <trkpt lat="48.72379" lon="2.09904">
        <ele>163.035</ele>
        <time>2013-08-01T16:10:27Z</time>
      </trkpt>
      <trkpt lat="48.72378" lon="2.09904">
        <ele>163.156</ele>
        <time>2013-08-01T16:10:33Z</time>
      </trkpt>
    </trkseg>
  </trk>
</gpx>